<?xml version="1.0" encoding="UTF-8" standalone="no" ?>
<gpx xmlns="http://www.topografix.com/GPX/1/1" xmlns:xsi="http://www.w3.org/2001/XMLSchema-instance" xsi:schemaLocation="http://www.topografix.com/GPX/1/1 http://www.topografix.com/GPX/1/1/gpx.xsd" version="1.1" creator="VisuGPX - https://www.visugpx.com">
  <metadata>
    <name>Sigottier Serres par le col de Saumane</name>
    <desc><![CDATA[Montée raide sur sentier forestier puis balade sur la crête avec vue sur 360° sur Serres et la vallée du Buech]]></desc>
  </metadata>
  <trk>
    <name><![CDATA[Tracé 21 avr. 2016 10:13:23]]></name>
    <trkseg>
      <trkpt lat="44.45384" lon="5.69268">
        <ele>729</ele>
        <time>2016-04-21T08:13:23Z</time>
      </trkpt>
      <trkpt lat="44.45386" lon="5.69265">
        <ele>731</ele>
        <time>2016-04-21T08:17:05Z</time>
      </trkpt>
      <trkpt lat="44.45384" lon="5.69253">
        <ele>723</ele>
        <time>2016-04-21T08:17:20Z</time>
      </trkpt>
      <trkpt lat="44.45385" lon="5.69244">
        <ele>716</ele>
        <time>2016-04-21T08:17:29Z</time>
      </trkpt>
      <trkpt lat="44.45387" lon="5.69234">
        <ele>715</ele>
        <time>2016-04-21T08:17:48Z</time>
      </trkpt>
      <trkpt lat="44.45395" lon="5.69231">
        <ele>716</ele>
        <time>2016-04-21T08:17:58Z</time>
      </trkpt>
      <trkpt lat="44.45403" lon="5.69219">
        <ele>717</ele>
        <time>2016-04-21T08:18:02Z</time>
      </trkpt>
      <trkpt lat="44.45407" lon="5.6921">
        <ele>717</ele>
        <time>2016-04-21T08:18:08Z</time>
      </trkpt>
      <trkpt lat="44.45407" lon="5.69199">
        <ele>719</ele>
        <time>2016-04-21T08:18:15Z</time>
      </trkpt>
      <trkpt lat="44.4541" lon="5.69187">
        <ele>723</ele>
        <time>2016-04-21T08:18:31Z</time>
      </trkpt>
      <trkpt lat="44.45412" lon="5.69177">
        <ele>724</ele>
        <time>2016-04-21T08:18:38Z</time>
      </trkpt>
      <trkpt lat="44.45416" lon="5.69166">
        <ele>725</ele>
        <time>2016-04-21T08:18:47Z</time>
      </trkpt>
      <trkpt lat="44.45423" lon="5.69157">
        <ele>725</ele>
        <time>2016-04-21T08:18:53Z</time>
      </trkpt>
      <trkpt lat="44.45426" lon="5.69146">
        <ele>726</ele>
        <time>2016-04-21T08:19:02Z</time>
      </trkpt>
      <trkpt lat="44.45418" lon="5.6915">
        <ele>729</ele>
        <time>2016-04-21T08:19:13Z</time>
      </trkpt>
      <trkpt lat="44.45412" lon="5.69159">
        <ele>731</ele>
        <time>2016-04-21T08:19:21Z</time>
      </trkpt>
      <trkpt lat="44.45405" lon="5.69161">
        <ele>732</ele>
        <time>2016-04-21T08:19:26Z</time>
      </trkpt>
      <trkpt lat="44.45397" lon="5.69166">
        <ele>734</ele>
        <time>2016-04-21T08:19:35Z</time>
      </trkpt>
      <trkpt lat="44.4539" lon="5.69172">
        <ele>735</ele>
        <time>2016-04-21T08:19:42Z</time>
      </trkpt>
      <trkpt lat="44.45382" lon="5.69176">
        <ele>737</ele>
        <time>2016-04-21T08:19:51Z</time>
      </trkpt>
      <trkpt lat="44.45374" lon="5.6918">
        <ele>739</ele>
        <time>2016-04-21T08:20:02Z</time>
      </trkpt>
      <trkpt lat="44.45368" lon="5.69189">
        <ele>740</ele>
        <time>2016-04-21T08:20:13Z</time>
      </trkpt>
      <trkpt lat="44.4536" lon="5.69196">
        <ele>741</ele>
        <time>2016-04-21T08:20:24Z</time>
      </trkpt>
      <trkpt lat="44.45354" lon="5.69204">
        <ele>745</ele>
        <time>2016-04-21T08:20:44Z</time>
      </trkpt>
      <trkpt lat="44.45346" lon="5.6921">
        <ele>747</ele>
        <time>2016-04-21T08:20:54Z</time>
      </trkpt>
      <trkpt lat="44.45341" lon="5.6922">
        <ele>748</ele>
        <time>2016-04-21T08:21:04Z</time>
      </trkpt>
      <trkpt lat="44.45335" lon="5.69227">
        <ele>749</ele>
        <time>2016-04-21T08:21:14Z</time>
      </trkpt>
      <trkpt lat="44.4533" lon="5.69237">
        <ele>750</ele>
        <time>2016-04-21T08:21:23Z</time>
      </trkpt>
      <trkpt lat="44.45336" lon="5.69232">
        <ele>756</ele>
        <time>2016-04-21T08:22:22Z</time>
      </trkpt>
      <trkpt lat="44.45343" lon="5.69225">
        <ele>755</ele>
        <time>2016-04-21T08:22:29Z</time>
      </trkpt>
      <trkpt lat="44.4535" lon="5.69217">
        <ele>754</ele>
        <time>2016-04-21T08:22:36Z</time>
      </trkpt>
      <trkpt lat="44.45357" lon="5.69211">
        <ele>753</ele>
        <time>2016-04-21T08:22:43Z</time>
      </trkpt>
      <trkpt lat="44.45351" lon="5.69222">
        <ele>756</ele>
        <time>2016-04-21T08:23:43Z</time>
      </trkpt>
      <trkpt lat="44.45344" lon="5.69229">
        <ele>755</ele>
        <time>2016-04-21T08:23:54Z</time>
      </trkpt>
      <trkpt lat="44.45337" lon="5.69234">
        <ele>755</ele>
        <time>2016-04-21T08:24:02Z</time>
      </trkpt>
      <trkpt lat="44.45335" lon="5.69245">
        <ele>754</ele>
        <time>2016-04-21T08:25:01Z</time>
      </trkpt>
      <trkpt lat="44.45329" lon="5.69252">
        <ele>755</ele>
        <time>2016-04-21T08:25:08Z</time>
      </trkpt>
      <trkpt lat="44.45322" lon="5.69257">
        <ele>756</ele>
        <time>2016-04-21T08:25:16Z</time>
      </trkpt>
      <trkpt lat="44.45314" lon="5.69262">
        <ele>757</ele>
        <time>2016-04-21T08:25:25Z</time>
      </trkpt>
      <trkpt lat="44.45306" lon="5.69265">
        <ele>758</ele>
        <time>2016-04-21T08:25:33Z</time>
      </trkpt>
      <trkpt lat="44.45299" lon="5.69268">
        <ele>758</ele>
        <time>2016-04-21T08:25:40Z</time>
      </trkpt>
      <trkpt lat="44.45291" lon="5.69274">
        <ele>759</ele>
        <time>2016-04-21T08:25:47Z</time>
      </trkpt>
      <trkpt lat="44.45283" lon="5.69276">
        <ele>759</ele>
        <time>2016-04-21T08:25:54Z</time>
      </trkpt>
      <trkpt lat="44.45277" lon="5.69281">
        <ele>759</ele>
        <time>2016-04-21T08:26:01Z</time>
      </trkpt>
      <trkpt lat="44.45268" lon="5.69284">
        <ele>758</ele>
        <time>2016-04-21T08:26:06Z</time>
      </trkpt>
      <trkpt lat="44.45259" lon="5.69287">
        <ele>758</ele>
        <time>2016-04-21T08:26:14Z</time>
      </trkpt>
      <trkpt lat="44.4525" lon="5.69288">
        <ele>757</ele>
        <time>2016-04-21T08:26:25Z</time>
      </trkpt>
      <trkpt lat="44.45242" lon="5.69289">
        <ele>757</ele>
        <time>2016-04-21T08:26:32Z</time>
      </trkpt>
      <trkpt lat="44.45233" lon="5.69288">
        <ele>757</ele>
        <time>2016-04-21T08:26:38Z</time>
      </trkpt>
      <trkpt lat="44.45225" lon="5.6929">
        <ele>757</ele>
        <time>2016-04-21T08:26:48Z</time>
      </trkpt>
      <trkpt lat="44.45216" lon="5.6929">
        <ele>757</ele>
        <time>2016-04-21T08:26:56Z</time>
      </trkpt>
      <trkpt lat="44.45209" lon="5.69288">
        <ele>758</ele>
        <time>2016-04-21T08:27:01Z</time>
      </trkpt>
      <trkpt lat="44.45201" lon="5.69288">
        <ele>759</ele>
        <time>2016-04-21T08:27:11Z</time>
      </trkpt>
      <trkpt lat="44.45194" lon="5.69292">
        <ele>760</ele>
        <time>2016-04-21T08:27:16Z</time>
      </trkpt>
      <trkpt lat="44.45187" lon="5.69299">
        <ele>761</ele>
        <time>2016-04-21T08:27:22Z</time>
      </trkpt>
      <trkpt lat="44.4518" lon="5.69307">
        <ele>763</ele>
        <time>2016-04-21T08:27:30Z</time>
      </trkpt>
      <trkpt lat="44.45174" lon="5.69316">
        <ele>764</ele>
        <time>2016-04-21T08:27:37Z</time>
      </trkpt>
      <trkpt lat="44.45165" lon="5.69317">
        <ele>766</ele>
        <time>2016-04-21T08:27:44Z</time>
      </trkpt>
      <trkpt lat="44.45157" lon="5.6932">
        <ele>767</ele>
        <time>2016-04-21T08:27:50Z</time>
      </trkpt>
      <trkpt lat="44.45149" lon="5.69324">
        <ele>769</ele>
        <time>2016-04-21T08:27:56Z</time>
      </trkpt>
      <trkpt lat="44.45141" lon="5.69329">
        <ele>772</ele>
        <time>2016-04-21T08:28:08Z</time>
      </trkpt>
      <trkpt lat="44.45133" lon="5.69333">
        <ele>774</ele>
        <time>2016-04-21T08:28:17Z</time>
      </trkpt>
      <trkpt lat="44.45125" lon="5.69336">
        <ele>775</ele>
        <time>2016-04-21T08:28:24Z</time>
      </trkpt>
      <trkpt lat="44.45116" lon="5.69339">
        <ele>775</ele>
        <time>2016-04-21T08:28:31Z</time>
      </trkpt>
      <trkpt lat="44.45109" lon="5.69341">
        <ele>775</ele>
        <time>2016-04-21T08:28:40Z</time>
      </trkpt>
      <trkpt lat="44.45101" lon="5.69349">
        <ele>776</ele>
        <time>2016-04-21T08:28:51Z</time>
      </trkpt>
      <trkpt lat="44.45094" lon="5.69354">
        <ele>778</ele>
        <time>2016-04-21T08:29:02Z</time>
      </trkpt>
      <trkpt lat="44.45086" lon="5.69357">
        <ele>779</ele>
        <time>2016-04-21T08:29:11Z</time>
      </trkpt>
      <trkpt lat="44.45079" lon="5.69365">
        <ele>781</ele>
        <time>2016-04-21T08:29:24Z</time>
      </trkpt>
      <trkpt lat="44.45071" lon="5.6937">
        <ele>782</ele>
        <time>2016-04-21T08:29:37Z</time>
      </trkpt>
      <trkpt lat="44.45063" lon="5.69375">
        <ele>784</ele>
        <time>2016-04-21T08:29:50Z</time>
      </trkpt>
      <trkpt lat="44.45054" lon="5.69376">
        <ele>785</ele>
        <time>2016-04-21T08:29:57Z</time>
      </trkpt>
      <trkpt lat="44.45046" lon="5.69376">
        <ele>785</ele>
        <time>2016-04-21T08:30:07Z</time>
      </trkpt>
      <trkpt lat="44.45037" lon="5.69377">
        <ele>785</ele>
        <time>2016-04-21T08:30:16Z</time>
      </trkpt>
      <trkpt lat="44.4503" lon="5.69383">
        <ele>785</ele>
        <time>2016-04-21T08:30:25Z</time>
      </trkpt>
      <trkpt lat="44.45022" lon="5.69386">
        <ele>784</ele>
        <time>2016-04-21T08:30:34Z</time>
      </trkpt>
      <trkpt lat="44.45014" lon="5.69391">
        <ele>783</ele>
        <time>2016-04-21T08:30:47Z</time>
      </trkpt>
      <trkpt lat="44.45006" lon="5.69397">
        <ele>784</ele>
        <time>2016-04-21T08:30:57Z</time>
      </trkpt>
      <trkpt lat="44.44998" lon="5.69399">
        <ele>786</ele>
        <time>2016-04-21T08:31:08Z</time>
      </trkpt>
      <trkpt lat="44.4499" lon="5.69403">
        <ele>787</ele>
        <time>2016-04-21T08:31:19Z</time>
      </trkpt>
      <trkpt lat="44.44983" lon="5.69408">
        <ele>788</ele>
        <time>2016-04-21T08:31:28Z</time>
      </trkpt>
      <trkpt lat="44.44975" lon="5.69414">
        <ele>789</ele>
        <time>2016-04-21T08:31:36Z</time>
      </trkpt>
      <trkpt lat="44.44967" lon="5.69417">
        <ele>789</ele>
        <time>2016-04-21T08:31:45Z</time>
      </trkpt>
      <trkpt lat="44.44959" lon="5.69422">
        <ele>791</ele>
        <time>2016-04-21T08:31:56Z</time>
      </trkpt>
      <trkpt lat="44.44951" lon="5.69424">
        <ele>793</ele>
        <time>2016-04-21T08:32:09Z</time>
      </trkpt>
      <trkpt lat="44.44942" lon="5.69427">
        <ele>796</ele>
        <time>2016-04-21T08:32:22Z</time>
      </trkpt>
      <trkpt lat="44.44935" lon="5.69432">
        <ele>797</ele>
        <time>2016-04-21T08:32:30Z</time>
      </trkpt>
      <trkpt lat="44.44927" lon="5.69435">
        <ele>798</ele>
        <time>2016-04-21T08:32:36Z</time>
      </trkpt>
      <trkpt lat="44.44919" lon="5.69439">
        <ele>798</ele>
        <time>2016-04-21T08:32:47Z</time>
      </trkpt>
      <trkpt lat="44.44911" lon="5.69441">
        <ele>798</ele>
        <time>2016-04-21T08:32:55Z</time>
      </trkpt>
      <trkpt lat="44.44905" lon="5.69448">
        <ele>797</ele>
        <time>2016-04-21T08:33:01Z</time>
      </trkpt>
      <trkpt lat="44.44898" lon="5.69456">
        <ele>798</ele>
        <time>2016-04-21T08:33:17Z</time>
      </trkpt>
      <trkpt lat="44.4489" lon="5.69463">
        <ele>798</ele>
        <time>2016-04-21T08:33:27Z</time>
      </trkpt>
      <trkpt lat="44.44885" lon="5.69473">
        <ele>799</ele>
        <time>2016-04-21T08:33:36Z</time>
      </trkpt>
      <trkpt lat="44.4488" lon="5.69483">
        <ele>799</ele>
        <time>2016-04-21T08:33:48Z</time>
      </trkpt>
      <trkpt lat="44.44871" lon="5.69487">
        <ele>799</ele>
        <time>2016-04-21T08:33:55Z</time>
      </trkpt>
      <trkpt lat="44.44863" lon="5.69487">
        <ele>803</ele>
        <time>2016-04-21T08:37:04Z</time>
      </trkpt>
      <trkpt lat="44.44855" lon="5.69492">
        <ele>804</ele>
        <time>2016-04-21T08:37:11Z</time>
      </trkpt>
      <trkpt lat="44.4485" lon="5.695">
        <ele>804</ele>
        <time>2016-04-21T08:37:21Z</time>
      </trkpt>
      <trkpt lat="44.44843" lon="5.69509">
        <ele>803</ele>
        <time>2016-04-21T08:37:32Z</time>
      </trkpt>
      <trkpt lat="44.44837" lon="5.69517">
        <ele>804</ele>
        <time>2016-04-21T08:37:43Z</time>
      </trkpt>
      <trkpt lat="44.44831" lon="5.69526">
        <ele>805</ele>
        <time>2016-04-21T08:37:53Z</time>
      </trkpt>
      <trkpt lat="44.44824" lon="5.69534">
        <ele>806</ele>
        <time>2016-04-21T08:38:03Z</time>
      </trkpt>
      <trkpt lat="44.44816" lon="5.69539">
        <ele>806</ele>
        <time>2016-04-21T08:38:12Z</time>
      </trkpt>
      <trkpt lat="44.44808" lon="5.6954">
        <ele>807</ele>
        <time>2016-04-21T08:38:26Z</time>
      </trkpt>
      <trkpt lat="44.448" lon="5.69536">
        <ele>807</ele>
        <time>2016-04-21T08:38:33Z</time>
      </trkpt>
      <trkpt lat="44.44793" lon="5.69528">
        <ele>806</ele>
        <time>2016-04-21T08:38:42Z</time>
      </trkpt>
      <trkpt lat="44.44792" lon="5.69516">
        <ele>808</ele>
        <time>2016-04-21T08:38:54Z</time>
      </trkpt>
      <trkpt lat="44.44797" lon="5.69507">
        <ele>809</ele>
        <time>2016-04-21T08:39:04Z</time>
      </trkpt>
      <trkpt lat="44.448" lon="5.69495">
        <ele>810</ele>
        <time>2016-04-21T08:39:14Z</time>
      </trkpt>
      <trkpt lat="44.44804" lon="5.69485">
        <ele>811</ele>
        <time>2016-04-21T08:39:24Z</time>
      </trkpt>
      <trkpt lat="44.44812" lon="5.69479">
        <ele>811</ele>
        <time>2016-04-21T08:39:32Z</time>
      </trkpt>
      <trkpt lat="44.44818" lon="5.69472">
        <ele>812</ele>
        <time>2016-04-21T08:39:40Z</time>
      </trkpt>
      <trkpt lat="44.44825" lon="5.69466">
        <ele>813</ele>
        <time>2016-04-21T08:39:50Z</time>
      </trkpt>
      <trkpt lat="44.44832" lon="5.69461">
        <ele>815</ele>
        <time>2016-04-21T08:39:59Z</time>
      </trkpt>
      <trkpt lat="44.44839" lon="5.69453">
        <ele>815</ele>
        <time>2016-04-21T08:40:09Z</time>
      </trkpt>
      <trkpt lat="44.44843" lon="5.69443">
        <ele>817</ele>
        <time>2016-04-21T08:40:20Z</time>
      </trkpt>
      <trkpt lat="44.4485" lon="5.69435">
        <ele>819</ele>
        <time>2016-04-21T08:40:30Z</time>
      </trkpt>
      <trkpt lat="44.44851" lon="5.69424">
        <ele>820</ele>
        <time>2016-04-21T08:40:39Z</time>
      </trkpt>
      <trkpt lat="44.4485" lon="5.69411">
        <ele>821</ele>
        <time>2016-04-21T08:40:50Z</time>
      </trkpt>
      <trkpt lat="44.44851" lon="5.694">
        <ele>822</ele>
        <time>2016-04-21T08:41:00Z</time>
      </trkpt>
      <trkpt lat="44.44853" lon="5.69388">
        <ele>822</ele>
        <time>2016-04-21T08:41:10Z</time>
      </trkpt>
      <trkpt lat="44.44857" lon="5.69378">
        <ele>822</ele>
        <time>2016-04-21T08:41:19Z</time>
      </trkpt>
      <trkpt lat="44.44863" lon="5.69369">
        <ele>823</ele>
        <time>2016-04-21T08:41:33Z</time>
      </trkpt>
      <trkpt lat="44.44868" lon="5.6936">
        <ele>824</ele>
        <time>2016-04-21T08:41:42Z</time>
      </trkpt>
      <trkpt lat="44.44873" lon="5.6935">
        <ele>826</ele>
        <time>2016-04-21T08:41:52Z</time>
      </trkpt>
      <trkpt lat="44.44877" lon="5.69339">
        <ele>827</ele>
        <time>2016-04-21T08:42:00Z</time>
      </trkpt>
      <trkpt lat="44.44881" lon="5.69329">
        <ele>828</ele>
        <time>2016-04-21T08:42:11Z</time>
      </trkpt>
      <trkpt lat="44.44882" lon="5.69317">
        <ele>829</ele>
        <time>2016-04-21T08:42:18Z</time>
      </trkpt>
      <trkpt lat="44.44885" lon="5.69307">
        <ele>831</ele>
        <time>2016-04-21T08:42:31Z</time>
      </trkpt>
      <trkpt lat="44.44888" lon="5.69295">
        <ele>832</ele>
        <time>2016-04-21T08:42:44Z</time>
      </trkpt>
      <trkpt lat="44.44894" lon="5.69286">
        <ele>833</ele>
        <time>2016-04-21T08:42:56Z</time>
      </trkpt>
      <trkpt lat="44.44897" lon="5.69274">
        <ele>834</ele>
        <time>2016-04-21T08:43:05Z</time>
      </trkpt>
      <trkpt lat="44.44903" lon="5.69265">
        <ele>835</ele>
        <time>2016-04-21T08:43:15Z</time>
      </trkpt>
      <trkpt lat="44.44908" lon="5.69255">
        <ele>836</ele>
        <time>2016-04-21T08:43:24Z</time>
      </trkpt>
      <trkpt lat="44.44909" lon="5.69243">
        <ele>837</ele>
        <time>2016-04-21T08:43:32Z</time>
      </trkpt>
      <trkpt lat="44.44914" lon="5.69235">
        <ele>837</ele>
        <time>2016-04-21T08:43:43Z</time>
      </trkpt>
      <trkpt lat="44.44916" lon="5.69224">
        <ele>838</ele>
        <time>2016-04-21T08:43:53Z</time>
      </trkpt>
      <trkpt lat="44.4492" lon="5.69213">
        <ele>840</ele>
        <time>2016-04-21T08:44:03Z</time>
      </trkpt>
      <trkpt lat="44.44924" lon="5.69203">
        <ele>841</ele>
        <time>2016-04-21T08:44:13Z</time>
      </trkpt>
      <trkpt lat="44.44926" lon="5.69191">
        <ele>842</ele>
        <time>2016-04-21T08:44:23Z</time>
      </trkpt>
      <trkpt lat="44.44927" lon="5.69179">
        <ele>842</ele>
        <time>2016-04-21T08:44:34Z</time>
      </trkpt>
      <trkpt lat="44.4493" lon="5.69168">
        <ele>843</ele>
        <time>2016-04-21T08:44:43Z</time>
      </trkpt>
      <trkpt lat="44.44935" lon="5.69159">
        <ele>845</ele>
        <time>2016-04-21T08:44:53Z</time>
      </trkpt>
      <trkpt lat="44.44938" lon="5.69149">
        <ele>846</ele>
        <time>2016-04-21T08:45:04Z</time>
      </trkpt>
      <trkpt lat="44.44943" lon="5.69139">
        <ele>847</ele>
        <time>2016-04-21T08:45:14Z</time>
      </trkpt>
      <trkpt lat="44.44948" lon="5.69129">
        <ele>848</ele>
        <time>2016-04-21T08:45:24Z</time>
      </trkpt>
      <trkpt lat="44.44951" lon="5.69117">
        <ele>850</ele>
        <time>2016-04-21T08:45:37Z</time>
      </trkpt>
      <trkpt lat="44.44957" lon="5.69111">
        <ele>852</ele>
        <time>2016-04-21T08:45:46Z</time>
      </trkpt>
      <trkpt lat="44.44961" lon="5.691">
        <ele>853</ele>
        <time>2016-04-21T08:45:56Z</time>
      </trkpt>
      <trkpt lat="44.44963" lon="5.69088">
        <ele>854</ele>
        <time>2016-04-21T08:46:03Z</time>
      </trkpt>
      <trkpt lat="44.44964" lon="5.69076">
        <ele>855</ele>
        <time>2016-04-21T08:46:16Z</time>
      </trkpt>
      <trkpt lat="44.44969" lon="5.69068">
        <ele>856</ele>
        <time>2016-04-21T08:46:26Z</time>
      </trkpt>
      <trkpt lat="44.44973" lon="5.69057">
        <ele>860</ele>
        <time>2016-04-21T08:46:36Z</time>
      </trkpt>
      <trkpt lat="44.44977" lon="5.69047">
        <ele>862</ele>
        <time>2016-04-21T08:46:48Z</time>
      </trkpt>
      <trkpt lat="44.4498" lon="5.69036">
        <ele>861</ele>
        <time>2016-04-21T08:47:00Z</time>
      </trkpt>
      <trkpt lat="44.44978" lon="5.69024">
        <ele>861</ele>
        <time>2016-04-21T08:47:10Z</time>
      </trkpt>
      <trkpt lat="44.44973" lon="5.69015">
        <ele>861</ele>
        <time>2016-04-21T08:47:21Z</time>
      </trkpt>
      <trkpt lat="44.44968" lon="5.69005">
        <ele>862</ele>
        <time>2016-04-21T08:47:30Z</time>
      </trkpt>
      <trkpt lat="44.44961" lon="5.68998">
        <ele>862</ele>
        <time>2016-04-21T08:47:41Z</time>
      </trkpt>
      <trkpt lat="44.44953" lon="5.68993">
        <ele>863</ele>
        <time>2016-04-21T08:47:51Z</time>
      </trkpt>
      <trkpt lat="44.44944" lon="5.68991">
        <ele>863</ele>
        <time>2016-04-21T08:48:00Z</time>
      </trkpt>
      <trkpt lat="44.44936" lon="5.68987">
        <ele>863</ele>
        <time>2016-04-21T08:48:12Z</time>
      </trkpt>
      <trkpt lat="44.44928" lon="5.68981">
        <ele>864</ele>
        <time>2016-04-21T08:48:23Z</time>
      </trkpt>
      <trkpt lat="44.44925" lon="5.6897">
        <ele>863</ele>
        <time>2016-04-21T08:48:32Z</time>
      </trkpt>
      <trkpt lat="44.44926" lon="5.68958">
        <ele>864</ele>
        <time>2016-04-21T08:48:45Z</time>
      </trkpt>
      <trkpt lat="44.44927" lon="5.68946">
        <ele>864</ele>
        <time>2016-04-21T08:48:56Z</time>
      </trkpt>
      <trkpt lat="44.44929" lon="5.68934">
        <ele>865</ele>
        <time>2016-04-21T08:49:05Z</time>
      </trkpt>
      <trkpt lat="44.4493" lon="5.68921">
        <ele>866</ele>
        <time>2016-04-21T08:49:17Z</time>
      </trkpt>
      <trkpt lat="44.44934" lon="5.6891">
        <ele>867</ele>
        <time>2016-04-21T08:49:25Z</time>
      </trkpt>
      <trkpt lat="44.44938" lon="5.689">
        <ele>868</ele>
        <time>2016-04-21T08:49:34Z</time>
      </trkpt>
      <trkpt lat="44.44943" lon="5.68891">
        <ele>870</ele>
        <time>2016-04-21T08:49:43Z</time>
      </trkpt>
      <trkpt lat="44.4495" lon="5.68883">
        <ele>871</ele>
        <time>2016-04-21T08:49:52Z</time>
      </trkpt>
      <trkpt lat="44.44955" lon="5.68874">
        <ele>872</ele>
        <time>2016-04-21T08:50:01Z</time>
      </trkpt>
      <trkpt lat="44.44957" lon="5.68863">
        <ele>874</ele>
        <time>2016-04-21T08:50:12Z</time>
      </trkpt>
      <trkpt lat="44.44957" lon="5.68851">
        <ele>877</ele>
        <time>2016-04-21T08:50:24Z</time>
      </trkpt>
      <trkpt lat="44.44955" lon="5.68839">
        <ele>877</ele>
        <time>2016-04-21T08:50:32Z</time>
      </trkpt>
      <trkpt lat="44.44957" lon="5.68828">
        <ele>876</ele>
        <time>2016-04-21T08:50:38Z</time>
      </trkpt>
      <trkpt lat="44.44959" lon="5.68816">
        <ele>876</ele>
        <time>2016-04-21T08:50:45Z</time>
      </trkpt>
      <trkpt lat="44.44962" lon="5.68805">
        <ele>875</ele>
        <time>2016-04-21T08:50:54Z</time>
      </trkpt>
      <trkpt lat="44.44963" lon="5.68795">
        <ele>875</ele>
        <time>2016-04-21T08:51:04Z</time>
      </trkpt>
      <trkpt lat="44.44964" lon="5.68784">
        <ele>875</ele>
        <time>2016-04-21T08:51:13Z</time>
      </trkpt>
      <trkpt lat="44.44968" lon="5.68773">
        <ele>875</ele>
        <time>2016-04-21T08:51:23Z</time>
      </trkpt>
      <trkpt lat="44.44972" lon="5.68762">
        <ele>874</ele>
        <time>2016-04-21T08:51:35Z</time>
      </trkpt>
      <trkpt lat="44.44973" lon="5.68751">
        <ele>874</ele>
        <time>2016-04-21T08:51:45Z</time>
      </trkpt>
      <trkpt lat="44.44977" lon="5.68742">
        <ele>874</ele>
        <time>2016-04-21T08:51:53Z</time>
      </trkpt>
      <trkpt lat="44.44983" lon="5.68733">
        <ele>874</ele>
        <time>2016-04-21T08:52:02Z</time>
      </trkpt>
      <trkpt lat="44.44987" lon="5.68723">
        <ele>875</ele>
        <time>2016-04-21T08:52:11Z</time>
      </trkpt>
      <trkpt lat="44.44992" lon="5.68716">
        <ele>875</ele>
        <time>2016-04-21T08:52:20Z</time>
      </trkpt>
      <trkpt lat="44.44998" lon="5.68707">
        <ele>877</ele>
        <time>2016-04-21T08:52:32Z</time>
      </trkpt>
      <trkpt lat="44.45002" lon="5.68696">
        <ele>878</ele>
        <time>2016-04-21T08:52:42Z</time>
      </trkpt>
      <trkpt lat="44.45008" lon="5.68688">
        <ele>879</ele>
        <time>2016-04-21T08:52:55Z</time>
      </trkpt>
      <trkpt lat="44.4501" lon="5.68676">
        <ele>879</ele>
        <time>2016-04-21T08:53:07Z</time>
      </trkpt>
      <trkpt lat="44.45015" lon="5.68667">
        <ele>880</ele>
        <time>2016-04-21T08:53:16Z</time>
      </trkpt>
      <trkpt lat="44.45019" lon="5.68656">
        <ele>881</ele>
        <time>2016-04-21T08:53:27Z</time>
      </trkpt>
      <trkpt lat="44.45019" lon="5.68644">
        <ele>884</ele>
        <time>2016-04-21T08:53:42Z</time>
      </trkpt>
      <trkpt lat="44.45019" lon="5.68633">
        <ele>885</ele>
        <time>2016-04-21T08:53:54Z</time>
      </trkpt>
      <trkpt lat="44.45018" lon="5.6862">
        <ele>887</ele>
        <time>2016-04-21T08:54:09Z</time>
      </trkpt>
      <trkpt lat="44.45012" lon="5.68611">
        <ele>888</ele>
        <time>2016-04-21T08:54:20Z</time>
      </trkpt>
      <trkpt lat="44.45006" lon="5.68602">
        <ele>888</ele>
        <time>2016-04-21T08:54:31Z</time>
      </trkpt>
      <trkpt lat="44.45002" lon="5.68592">
        <ele>890</ele>
        <time>2016-04-21T08:54:46Z</time>
      </trkpt>
      <trkpt lat="44.45" lon="5.68581">
        <ele>891</ele>
        <time>2016-04-21T08:54:56Z</time>
      </trkpt>
      <trkpt lat="44.45001" lon="5.68569">
        <ele>891</ele>
        <time>2016-04-21T08:55:07Z</time>
      </trkpt>
      <trkpt lat="44.45004" lon="5.68558">
        <ele>892</ele>
        <time>2016-04-21T08:55:15Z</time>
      </trkpt>
      <trkpt lat="44.45007" lon="5.68548">
        <ele>894</ele>
        <time>2016-04-21T08:55:23Z</time>
      </trkpt>
      <trkpt lat="44.45007" lon="5.68536">
        <ele>895</ele>
        <time>2016-04-21T08:55:30Z</time>
      </trkpt>
      <trkpt lat="44.45003" lon="5.68525">
        <ele>896</ele>
        <time>2016-04-21T08:55:39Z</time>
      </trkpt>
      <trkpt lat="44.44999" lon="5.68514">
        <ele>897</ele>
        <time>2016-04-21T08:55:47Z</time>
      </trkpt>
      <trkpt lat="44.44995" lon="5.68503">
        <ele>897</ele>
        <time>2016-04-21T08:55:56Z</time>
      </trkpt>
      <trkpt lat="44.44993" lon="5.68492">
        <ele>898</ele>
        <time>2016-04-21T08:56:03Z</time>
      </trkpt>
      <trkpt lat="44.4499" lon="5.68481">
        <ele>899</ele>
        <time>2016-04-21T08:56:11Z</time>
      </trkpt>
      <trkpt lat="44.44986" lon="5.6847">
        <ele>900</ele>
        <time>2016-04-21T08:56:20Z</time>
      </trkpt>
      <trkpt lat="44.44984" lon="5.68459">
        <ele>900</ele>
        <time>2016-04-21T08:56:29Z</time>
      </trkpt>
      <trkpt lat="44.44977" lon="5.68454">
        <ele>901</ele>
        <time>2016-04-21T08:56:36Z</time>
      </trkpt>
      <trkpt lat="44.4497" lon="5.68446">
        <ele>901</ele>
        <time>2016-04-21T08:56:43Z</time>
      </trkpt>
      <trkpt lat="44.44963" lon="5.6844">
        <ele>900</ele>
        <time>2016-04-21T08:56:55Z</time>
      </trkpt>
      <trkpt lat="44.44954" lon="5.68437">
        <ele>900</ele>
        <time>2016-04-21T08:57:09Z</time>
      </trkpt>
      <trkpt lat="44.44946" lon="5.68435">
        <ele>900</ele>
        <time>2016-04-21T08:57:17Z</time>
      </trkpt>
      <trkpt lat="44.44938" lon="5.6843">
        <ele>901</ele>
        <time>2016-04-21T08:57:24Z</time>
      </trkpt>
      <trkpt lat="44.4493" lon="5.68427">
        <ele>902</ele>
        <time>2016-04-21T08:57:32Z</time>
      </trkpt>
      <trkpt lat="44.44922" lon="5.68424">
        <ele>902</ele>
        <time>2016-04-21T08:57:40Z</time>
      </trkpt>
      <trkpt lat="44.44914" lon="5.68421">
        <ele>902</ele>
        <time>2016-04-21T08:57:47Z</time>
      </trkpt>
      <trkpt lat="44.44908" lon="5.68412">
        <ele>901</ele>
        <time>2016-04-21T08:58:01Z</time>
      </trkpt>
      <trkpt lat="44.44905" lon="5.68401">
        <ele>901</ele>
        <time>2016-04-21T08:58:08Z</time>
      </trkpt>
      <trkpt lat="44.44902" lon="5.6839">
        <ele>902</ele>
        <time>2016-04-21T08:58:19Z</time>
      </trkpt>
      <trkpt lat="44.44898" lon="5.68379">
        <ele>903</ele>
        <time>2016-04-21T08:58:33Z</time>
      </trkpt>
      <trkpt lat="44.44891" lon="5.68371">
        <ele>904</ele>
        <time>2016-04-21T08:58:46Z</time>
      </trkpt>
      <trkpt lat="44.44883" lon="5.68368">
        <ele>905</ele>
        <time>2016-04-21T08:58:59Z</time>
      </trkpt>
      <trkpt lat="44.44874" lon="5.68366">
        <ele>906</ele>
        <time>2016-04-21T08:59:12Z</time>
      </trkpt>
      <trkpt lat="44.44866" lon="5.68367">
        <ele>908</ele>
        <time>2016-04-21T08:59:26Z</time>
      </trkpt>
      <trkpt lat="44.44858" lon="5.68361">
        <ele>911</ele>
        <time>2016-04-21T08:59:52Z</time>
      </trkpt>
      <trkpt lat="44.44851" lon="5.68368">
        <ele>915</ele>
        <time>2016-04-21T09:06:08Z</time>
      </trkpt>
      <trkpt lat="44.44844" lon="5.68375">
        <ele>916</ele>
        <time>2016-04-21T09:06:18Z</time>
      </trkpt>
      <trkpt lat="44.44838" lon="5.68385">
        <ele>916</ele>
        <time>2016-04-21T09:06:27Z</time>
      </trkpt>
      <trkpt lat="44.44834" lon="5.68395">
        <ele>918</ele>
        <time>2016-04-21T09:06:40Z</time>
      </trkpt>
      <trkpt lat="44.44829" lon="5.68405">
        <ele>919</ele>
        <time>2016-04-21T09:06:52Z</time>
      </trkpt>
      <trkpt lat="44.44824" lon="5.68414">
        <ele>920</ele>
        <time>2016-04-21T09:07:05Z</time>
      </trkpt>
      <trkpt lat="44.44816" lon="5.68419">
        <ele>920</ele>
        <time>2016-04-21T09:07:16Z</time>
      </trkpt>
      <trkpt lat="44.44808" lon="5.6842">
        <ele>921</ele>
        <time>2016-04-21T09:07:26Z</time>
      </trkpt>
      <trkpt lat="44.448" lon="5.68415">
        <ele>925</ele>
        <time>2016-04-21T09:09:18Z</time>
      </trkpt>
      <trkpt lat="44.44795" lon="5.68405">
        <ele>927</ele>
        <time>2016-04-21T09:09:43Z</time>
      </trkpt>
      <trkpt lat="44.44789" lon="5.68396">
        <ele>929</ele>
        <time>2016-04-21T09:09:56Z</time>
      </trkpt>
      <trkpt lat="44.44782" lon="5.6839">
        <ele>930</ele>
        <time>2016-04-21T09:10:07Z</time>
      </trkpt>
      <trkpt lat="44.44773" lon="5.68386">
        <ele>931</ele>
        <time>2016-04-21T09:10:12Z</time>
      </trkpt>
      <trkpt lat="44.44765" lon="5.68384">
        <ele>932</ele>
        <time>2016-04-21T09:10:25Z</time>
      </trkpt>
      <trkpt lat="44.44757" lon="5.68387">
        <ele>932</ele>
        <time>2016-04-21T09:10:43Z</time>
      </trkpt>
      <trkpt lat="44.4475" lon="5.68394">
        <ele>936</ele>
        <time>2016-04-21T09:11:25Z</time>
      </trkpt>
      <trkpt lat="44.44744" lon="5.68402">
        <ele>936</ele>
        <time>2016-04-21T09:11:36Z</time>
      </trkpt>
      <trkpt lat="44.44736" lon="5.68408">
        <ele>938</ele>
        <time>2016-04-21T09:11:56Z</time>
      </trkpt>
      <trkpt lat="44.44727" lon="5.68407">
        <ele>940</ele>
        <time>2016-04-21T09:12:22Z</time>
      </trkpt>
      <trkpt lat="44.44719" lon="5.6841">
        <ele>943</ele>
        <time>2016-04-21T09:12:33Z</time>
      </trkpt>
      <trkpt lat="44.44714" lon="5.6842">
        <ele>948</ele>
        <time>2016-04-21T09:12:49Z</time>
      </trkpt>
      <trkpt lat="44.44709" lon="5.6843">
        <ele>951</ele>
        <time>2016-04-21T09:13:00Z</time>
      </trkpt>
      <trkpt lat="44.44703" lon="5.68439">
        <ele>954</ele>
        <time>2016-04-21T09:13:12Z</time>
      </trkpt>
      <trkpt lat="44.44696" lon="5.68446">
        <ele>955</ele>
        <time>2016-04-21T09:13:25Z</time>
      </trkpt>
      <trkpt lat="44.44689" lon="5.68454">
        <ele>954</ele>
        <time>2016-04-21T09:13:34Z</time>
      </trkpt>
      <trkpt lat="44.44681" lon="5.68453">
        <ele>953</ele>
        <time>2016-04-21T09:13:49Z</time>
      </trkpt>
      <trkpt lat="44.44673" lon="5.68452">
        <ele>958</ele>
        <time>2016-04-21T09:14:12Z</time>
      </trkpt>
      <trkpt lat="44.44666" lon="5.68445">
        <ele>962</ele>
        <time>2016-04-21T09:14:23Z</time>
      </trkpt>
      <trkpt lat="44.44659" lon="5.6844">
        <ele>965</ele>
        <time>2016-04-21T09:14:36Z</time>
      </trkpt>
      <trkpt lat="44.4465" lon="5.68443">
        <ele>967</ele>
        <time>2016-04-21T09:14:49Z</time>
      </trkpt>
      <trkpt lat="44.44641" lon="5.68444">
        <ele>967</ele>
        <time>2016-04-21T09:15:08Z</time>
      </trkpt>
      <trkpt lat="44.44633" lon="5.68443">
        <ele>969</ele>
        <time>2016-04-21T09:15:19Z</time>
      </trkpt>
      <trkpt lat="44.44625" lon="5.68438">
        <ele>973</ele>
        <time>2016-04-21T09:15:37Z</time>
      </trkpt>
      <trkpt lat="44.44618" lon="5.68432">
        <ele>976</ele>
        <time>2016-04-21T09:15:47Z</time>
      </trkpt>
      <trkpt lat="44.44611" lon="5.68427">
        <ele>981</ele>
        <time>2016-04-21T09:16:10Z</time>
      </trkpt>
      <trkpt lat="44.44603" lon="5.68421">
        <ele>983</ele>
        <time>2016-04-21T09:16:32Z</time>
      </trkpt>
      <trkpt lat="44.44597" lon="5.68418">
        <ele>985</ele>
        <time>2016-04-21T09:16:46Z</time>
      </trkpt>
      <trkpt lat="44.44588" lon="5.68418">
        <ele>986</ele>
        <time>2016-04-21T09:16:51Z</time>
      </trkpt>
      <trkpt lat="44.4458" lon="5.68415">
        <ele>989</ele>
        <time>2016-04-21T09:17:03Z</time>
      </trkpt>
      <trkpt lat="44.44571" lon="5.68415">
        <ele>991</ele>
        <time>2016-04-21T09:17:13Z</time>
      </trkpt>
      <trkpt lat="44.44562" lon="5.68413">
        <ele>991</ele>
        <time>2016-04-21T09:17:36Z</time>
      </trkpt>
      <trkpt lat="44.44554" lon="5.68416">
        <ele>991</ele>
        <time>2016-04-21T09:17:48Z</time>
      </trkpt>
      <trkpt lat="44.44546" lon="5.68409">
        <ele>993</ele>
        <time>2016-04-21T09:18:09Z</time>
      </trkpt>
      <trkpt lat="44.44538" lon="5.68406">
        <ele>995</ele>
        <time>2016-04-21T09:18:25Z</time>
      </trkpt>
      <trkpt lat="44.4453" lon="5.68403">
        <ele>998</ele>
        <time>2016-04-21T09:18:44Z</time>
      </trkpt>
      <trkpt lat="44.44521" lon="5.68404">
        <ele>1000</ele>
        <time>2016-04-21T09:18:54Z</time>
      </trkpt>
      <trkpt lat="44.44512" lon="5.68403">
        <ele>1003</ele>
        <time>2016-04-21T09:19:18Z</time>
      </trkpt>
      <trkpt lat="44.44506" lon="5.68394">
        <ele>1006</ele>
        <time>2016-04-21T09:19:38Z</time>
      </trkpt>
      <trkpt lat="44.44498" lon="5.68396">
        <ele>1007</ele>
        <time>2016-04-21T09:19:46Z</time>
      </trkpt>
      <trkpt lat="44.4449" lon="5.684">
        <ele>1009</ele>
        <time>2016-04-21T09:19:56Z</time>
      </trkpt>
      <trkpt lat="44.44482" lon="5.68397">
        <ele>1012</ele>
        <time>2016-04-21T09:20:08Z</time>
      </trkpt>
      <trkpt lat="44.44473" lon="5.68399">
        <ele>1014</ele>
        <time>2016-04-21T09:20:16Z</time>
      </trkpt>
      <trkpt lat="44.44465" lon="5.684">
        <ele>1016</ele>
        <time>2016-04-21T09:20:27Z</time>
      </trkpt>
      <trkpt lat="44.44457" lon="5.68397">
        <ele>1019</ele>
        <time>2016-04-21T09:20:43Z</time>
      </trkpt>
      <trkpt lat="44.44449" lon="5.68392">
        <ele>1021</ele>
        <time>2016-04-21T09:21:00Z</time>
      </trkpt>
      <trkpt lat="44.44446" lon="5.6838">
        <ele>1025</ele>
        <time>2016-04-21T09:21:36Z</time>
      </trkpt>
      <trkpt lat="44.44445" lon="5.68369">
        <ele>1029</ele>
        <time>2016-04-21T09:21:51Z</time>
      </trkpt>
      <trkpt lat="44.44438" lon="5.68362">
        <ele>1032</ele>
        <time>2016-04-21T09:22:04Z</time>
      </trkpt>
      <trkpt lat="44.4443" lon="5.68357">
        <ele>1034</ele>
        <time>2016-04-21T09:22:17Z</time>
      </trkpt>
      <trkpt lat="44.44421" lon="5.68357">
        <ele>1035</ele>
        <time>2016-04-21T09:22:33Z</time>
      </trkpt>
      <trkpt lat="44.44414" lon="5.68351">
        <ele>1040</ele>
        <time>2016-04-21T09:22:59Z</time>
      </trkpt>
      <trkpt lat="44.44406" lon="5.6835">
        <ele>1044</ele>
        <time>2016-04-21T09:23:09Z</time>
      </trkpt>
      <trkpt lat="44.44397" lon="5.68348">
        <ele>1048</ele>
        <time>2016-04-21T09:23:23Z</time>
      </trkpt>
      <trkpt lat="44.44404" lon="5.68355">
        <ele>1055</ele>
        <time>2016-04-21T09:25:32Z</time>
      </trkpt>
      <trkpt lat="44.444" lon="5.68347">
        <ele>1059</ele>
        <time>2016-04-21T09:30:34Z</time>
      </trkpt>
      <trkpt lat="44.44394" lon="5.68339">
        <ele>1060</ele>
        <time>2016-04-21T09:30:48Z</time>
      </trkpt>
      <trkpt lat="44.44392" lon="5.68328">
        <ele>1063</ele>
        <time>2016-04-21T09:31:04Z</time>
      </trkpt>
      <trkpt lat="44.44394" lon="5.68316">
        <ele>1065</ele>
        <time>2016-04-21T09:31:23Z</time>
      </trkpt>
      <trkpt lat="44.44397" lon="5.68304">
        <ele>1069</ele>
        <time>2016-04-21T09:31:51Z</time>
      </trkpt>
      <trkpt lat="44.44405" lon="5.68302">
        <ele>1070</ele>
        <time>2016-04-21T09:31:55Z</time>
      </trkpt>
      <trkpt lat="44.44413" lon="5.68298">
        <ele>1072</ele>
        <time>2016-04-21T09:32:11Z</time>
      </trkpt>
      <trkpt lat="44.44421" lon="5.68293">
        <ele>1072</ele>
        <time>2016-04-21T09:32:36Z</time>
      </trkpt>
      <trkpt lat="44.44429" lon="5.68292">
        <ele>1073</ele>
        <time>2016-04-21T09:32:54Z</time>
      </trkpt>
      <trkpt lat="44.44437" lon="5.68289">
        <ele>1074</ele>
        <time>2016-04-21T09:33:02Z</time>
      </trkpt>
      <trkpt lat="44.44444" lon="5.68281">
        <ele>1074</ele>
        <time>2016-04-21T09:33:12Z</time>
      </trkpt>
      <trkpt lat="44.44446" lon="5.6827">
        <ele>1074</ele>
        <time>2016-04-21T09:33:21Z</time>
      </trkpt>
      <trkpt lat="44.44452" lon="5.68261">
        <ele>1075</ele>
        <time>2016-04-21T09:33:29Z</time>
      </trkpt>
      <trkpt lat="44.44454" lon="5.68249">
        <ele>1076</ele>
        <time>2016-04-21T09:33:40Z</time>
      </trkpt>
      <trkpt lat="44.44453" lon="5.68238">
        <ele>1077</ele>
        <time>2016-04-21T09:33:50Z</time>
      </trkpt>
      <trkpt lat="44.44452" lon="5.68226">
        <ele>1078</ele>
        <time>2016-04-21T09:33:59Z</time>
      </trkpt>
      <trkpt lat="44.44447" lon="5.68217">
        <ele>1079</ele>
        <time>2016-04-21T09:34:12Z</time>
      </trkpt>
      <trkpt lat="44.44444" lon="5.68206">
        <ele>1080</ele>
        <time>2016-04-21T09:34:21Z</time>
      </trkpt>
      <trkpt lat="44.44442" lon="5.68195">
        <ele>1082</ele>
        <time>2016-04-21T09:34:29Z</time>
      </trkpt>
      <trkpt lat="44.44435" lon="5.68188">
        <ele>1085</ele>
        <time>2016-04-21T09:34:36Z</time>
      </trkpt>
      <trkpt lat="44.44433" lon="5.68176">
        <ele>1087</ele>
        <time>2016-04-21T09:34:48Z</time>
      </trkpt>
      <trkpt lat="44.44436" lon="5.68165">
        <ele>1089</ele>
        <time>2016-04-21T09:34:56Z</time>
      </trkpt>
      <trkpt lat="44.44439" lon="5.68153">
        <ele>1090</ele>
        <time>2016-04-21T09:35:05Z</time>
      </trkpt>
      <trkpt lat="44.44443" lon="5.68143">
        <ele>1091</ele>
        <time>2016-04-21T09:35:17Z</time>
      </trkpt>
      <trkpt lat="44.44449" lon="5.68134">
        <ele>1091</ele>
        <time>2016-04-21T09:35:25Z</time>
      </trkpt>
      <trkpt lat="44.44452" lon="5.68123">
        <ele>1092</ele>
        <time>2016-04-21T09:35:38Z</time>
      </trkpt>
      <trkpt lat="44.4445" lon="5.68111">
        <ele>1092</ele>
        <time>2016-04-21T09:35:58Z</time>
      </trkpt>
      <trkpt lat="44.44443" lon="5.68103">
        <ele>1093</ele>
        <time>2016-04-21T09:38:14Z</time>
      </trkpt>
      <trkpt lat="44.44434" lon="5.68104">
        <ele>1095</ele>
        <time>2016-04-21T09:38:33Z</time>
      </trkpt>
      <trkpt lat="44.44428" lon="5.68111">
        <ele>1099</ele>
        <time>2016-04-21T09:38:54Z</time>
      </trkpt>
      <trkpt lat="44.4442" lon="5.68117">
        <ele>1102</ele>
        <time>2016-04-21T09:39:01Z</time>
      </trkpt>
      <trkpt lat="44.44414" lon="5.68125">
        <ele>1105</ele>
        <time>2016-04-21T09:39:23Z</time>
      </trkpt>
      <trkpt lat="44.44405" lon="5.68121">
        <ele>1106</ele>
        <time>2016-04-21T09:39:32Z</time>
      </trkpt>
      <trkpt lat="44.44397" lon="5.6812">
        <ele>1108</ele>
        <time>2016-04-21T09:39:46Z</time>
      </trkpt>
      <trkpt lat="44.44389" lon="5.68123">
        <ele>1110</ele>
        <time>2016-04-21T09:40:03Z</time>
      </trkpt>
      <trkpt lat="44.44383" lon="5.68127">
        <ele>1111</ele>
        <time>2016-04-21T09:40:09Z</time>
      </trkpt>
      <trkpt lat="44.44376" lon="5.68133">
        <ele>1113</ele>
        <time>2016-04-21T09:40:20Z</time>
      </trkpt>
      <trkpt lat="44.44371" lon="5.68142">
        <ele>1116</ele>
        <time>2016-04-21T09:40:43Z</time>
      </trkpt>
      <trkpt lat="44.44366" lon="5.68152">
        <ele>1119</ele>
        <time>2016-04-21T09:40:59Z</time>
      </trkpt>
      <trkpt lat="44.44359" lon="5.68158">
        <ele>1120</ele>
        <time>2016-04-21T09:41:08Z</time>
      </trkpt>
      <trkpt lat="44.44352" lon="5.68166">
        <ele>1123</ele>
        <time>2016-04-21T09:41:23Z</time>
      </trkpt>
      <trkpt lat="44.44346" lon="5.68169">
        <ele>1124</ele>
        <time>2016-04-21T09:41:34Z</time>
      </trkpt>
      <trkpt lat="44.44338" lon="5.68173">
        <ele>1126</ele>
        <time>2016-04-21T09:41:49Z</time>
      </trkpt>
      <trkpt lat="44.44331" lon="5.68166">
        <ele>1129</ele>
        <time>2016-04-21T09:42:06Z</time>
      </trkpt>
      <trkpt lat="44.44323" lon="5.68162">
        <ele>1132</ele>
        <time>2016-04-21T09:42:25Z</time>
      </trkpt>
      <trkpt lat="44.44316" lon="5.68155">
        <ele>1135</ele>
        <time>2016-04-21T09:42:53Z</time>
      </trkpt>
      <trkpt lat="44.4431" lon="5.68147">
        <ele>1137</ele>
        <time>2016-04-21T09:43:03Z</time>
      </trkpt>
      <trkpt lat="44.44306" lon="5.68137">
        <ele>1141</ele>
        <time>2016-04-21T09:43:18Z</time>
      </trkpt>
      <trkpt lat="44.44305" lon="5.68125">
        <ele>1145</ele>
        <time>2016-04-21T09:43:33Z</time>
      </trkpt>
      <trkpt lat="44.44298" lon="5.68119">
        <ele>1147</ele>
        <time>2016-04-21T09:43:46Z</time>
      </trkpt>
      <trkpt lat="44.44293" lon="5.68108">
        <ele>1150</ele>
        <time>2016-04-21T09:43:58Z</time>
      </trkpt>
      <trkpt lat="44.44287" lon="5.681">
        <ele>1151</ele>
        <time>2016-04-21T09:44:10Z</time>
      </trkpt>
      <trkpt lat="44.44285" lon="5.68089">
        <ele>1152</ele>
        <time>2016-04-21T09:44:25Z</time>
      </trkpt>
      <trkpt lat="44.44284" lon="5.68077">
        <ele>1154</ele>
        <time>2016-04-21T09:44:38Z</time>
      </trkpt>
      <trkpt lat="44.44277" lon="5.6807">
        <ele>1155</ele>
        <time>2016-04-21T09:44:50Z</time>
      </trkpt>
      <trkpt lat="44.44274" lon="5.68058">
        <ele>1157</ele>
        <time>2016-04-21T09:45:02Z</time>
      </trkpt>
      <trkpt lat="44.44267" lon="5.68051">
        <ele>1163</ele>
        <time>2016-04-21T09:49:57Z</time>
      </trkpt>
      <trkpt lat="44.4426" lon="5.68044">
        <ele>1164</ele>
        <time>2016-04-21T09:50:09Z</time>
      </trkpt>
      <trkpt lat="44.44252" lon="5.6804">
        <ele>1167</ele>
        <time>2016-04-21T09:50:27Z</time>
      </trkpt>
      <trkpt lat="44.44244" lon="5.6804">
        <ele>1168</ele>
        <time>2016-04-21T09:50:36Z</time>
      </trkpt>
      <trkpt lat="44.44236" lon="5.68035">
        <ele>1171</ele>
        <time>2016-04-21T09:50:54Z</time>
      </trkpt>
      <trkpt lat="44.44227" lon="5.68032">
        <ele>1173</ele>
        <time>2016-04-21T09:51:12Z</time>
      </trkpt>
      <trkpt lat="44.44219" lon="5.68031">
        <ele>1173</ele>
        <time>2016-04-21T09:51:26Z</time>
      </trkpt>
      <trkpt lat="44.4421" lon="5.68034">
        <ele>1177</ele>
        <time>2016-04-21T09:51:48Z</time>
      </trkpt>
      <trkpt lat="44.44201" lon="5.68035">
        <ele>1183</ele>
        <time>2016-04-21T09:52:16Z</time>
      </trkpt>
      <trkpt lat="44.44193" lon="5.68031">
        <ele>1186</ele>
        <time>2016-04-21T09:52:26Z</time>
      </trkpt>
      <trkpt lat="44.44184" lon="5.68031">
        <ele>1189</ele>
        <time>2016-04-21T09:52:42Z</time>
      </trkpt>
      <trkpt lat="44.44177" lon="5.68026">
        <ele>1191</ele>
        <time>2016-04-21T09:53:01Z</time>
      </trkpt>
      <trkpt lat="44.44169" lon="5.68023">
        <ele>1193</ele>
        <time>2016-04-21T09:53:12Z</time>
      </trkpt>
      <trkpt lat="44.44161" lon="5.68022">
        <ele>1194</ele>
        <time>2016-04-21T09:53:26Z</time>
      </trkpt>
      <trkpt lat="44.44155" lon="5.68032">
        <ele>1194</ele>
        <time>2016-04-21T09:53:36Z</time>
      </trkpt>
      <trkpt lat="44.44147" lon="5.68037">
        <ele>1194</ele>
        <time>2016-04-21T09:53:50Z</time>
      </trkpt>
      <trkpt lat="44.44141" lon="5.68042">
        <ele>1194</ele>
        <time>2016-04-21T09:53:59Z</time>
      </trkpt>
      <trkpt lat="44.44143" lon="5.68053">
        <ele>1206</ele>
        <time>2016-04-21T09:59:29Z</time>
      </trkpt>
      <trkpt lat="44.44142" lon="5.68066">
        <ele>1205</ele>
        <time>2016-04-21T09:59:41Z</time>
      </trkpt>
      <trkpt lat="44.44137" lon="5.68074">
        <ele>1205</ele>
        <time>2016-04-21T09:59:48Z</time>
      </trkpt>
      <trkpt lat="44.44132" lon="5.68084">
        <ele>1204</ele>
        <time>2016-04-21T09:59:58Z</time>
      </trkpt>
      <trkpt lat="44.44124" lon="5.68089">
        <ele>1203</ele>
        <time>2016-04-21T10:00:08Z</time>
      </trkpt>
      <trkpt lat="44.44117" lon="5.68095">
        <ele>1204</ele>
        <time>2016-04-21T10:00:17Z</time>
      </trkpt>
      <trkpt lat="44.44114" lon="5.68106">
        <ele>1204</ele>
        <time>2016-04-21T10:00:22Z</time>
      </trkpt>
      <trkpt lat="44.4411" lon="5.68117">
        <ele>1205</ele>
        <time>2016-04-21T10:00:29Z</time>
      </trkpt>
      <trkpt lat="44.44105" lon="5.68125">
        <ele>1205</ele>
        <time>2016-04-21T10:00:37Z</time>
      </trkpt>
      <trkpt lat="44.44098" lon="5.68132">
        <ele>1205</ele>
        <time>2016-04-21T10:00:47Z</time>
      </trkpt>
      <trkpt lat="44.44095" lon="5.6814">
        <ele>1206</ele>
        <time>2016-04-21T10:00:54Z</time>
      </trkpt>
      <trkpt lat="44.44091" lon="5.68149">
        <ele>1206</ele>
        <time>2016-04-21T10:01:00Z</time>
      </trkpt>
      <trkpt lat="44.44088" lon="5.6816">
        <ele>1207</ele>
        <time>2016-04-21T10:01:07Z</time>
      </trkpt>
      <trkpt lat="44.44084" lon="5.6817">
        <ele>1207</ele>
        <time>2016-04-21T10:01:15Z</time>
      </trkpt>
      <trkpt lat="44.44082" lon="5.68181">
        <ele>1207</ele>
        <time>2016-04-21T10:01:24Z</time>
      </trkpt>
      <trkpt lat="44.44079" lon="5.68193">
        <ele>1206</ele>
        <time>2016-04-21T10:01:32Z</time>
      </trkpt>
      <trkpt lat="44.44079" lon="5.68205">
        <ele>1205</ele>
        <time>2016-04-21T10:01:41Z</time>
      </trkpt>
      <trkpt lat="44.44078" lon="5.68217">
        <ele>1204</ele>
        <time>2016-04-21T10:01:48Z</time>
      </trkpt>
      <trkpt lat="44.4408" lon="5.68228">
        <ele>1203</ele>
        <time>2016-04-21T10:01:57Z</time>
      </trkpt>
      <trkpt lat="44.44087" lon="5.68236">
        <ele>1202</ele>
        <time>2016-04-21T10:02:06Z</time>
      </trkpt>
      <trkpt lat="44.44088" lon="5.68248">
        <ele>1200</ele>
        <time>2016-04-21T10:02:15Z</time>
      </trkpt>
      <trkpt lat="44.44085" lon="5.68259">
        <ele>1199</ele>
        <time>2016-04-21T10:02:24Z</time>
      </trkpt>
      <trkpt lat="44.44082" lon="5.6827">
        <ele>1197</ele>
        <time>2016-04-21T10:02:32Z</time>
      </trkpt>
      <trkpt lat="44.44078" lon="5.68281">
        <ele>1195</ele>
        <time>2016-04-21T10:02:40Z</time>
      </trkpt>
      <trkpt lat="44.44075" lon="5.68292">
        <ele>1194</ele>
        <time>2016-04-21T10:02:48Z</time>
      </trkpt>
      <trkpt lat="44.44074" lon="5.68302">
        <ele>1193</ele>
        <time>2016-04-21T10:02:55Z</time>
      </trkpt>
      <trkpt lat="44.44074" lon="5.68315">
        <ele>1192</ele>
        <time>2016-04-21T10:03:02Z</time>
      </trkpt>
      <trkpt lat="44.44073" lon="5.68326">
        <ele>1190</ele>
        <time>2016-04-21T10:03:10Z</time>
      </trkpt>
      <trkpt lat="44.4407" lon="5.68337">
        <ele>1189</ele>
        <time>2016-04-21T10:03:17Z</time>
      </trkpt>
      <trkpt lat="44.44071" lon="5.68348">
        <ele>1188</ele>
        <time>2016-04-21T10:03:25Z</time>
      </trkpt>
      <trkpt lat="44.44071" lon="5.6836">
        <ele>1188</ele>
        <time>2016-04-21T10:03:33Z</time>
      </trkpt>
      <trkpt lat="44.4407" lon="5.68372">
        <ele>1188</ele>
        <time>2016-04-21T10:03:41Z</time>
      </trkpt>
      <trkpt lat="44.44067" lon="5.68383">
        <ele>1187</ele>
        <time>2016-04-21T10:03:49Z</time>
      </trkpt>
      <trkpt lat="44.44068" lon="5.68395">
        <ele>1186</ele>
        <time>2016-04-21T10:04:02Z</time>
      </trkpt>
      <trkpt lat="44.44067" lon="5.68406">
        <ele>1185</ele>
        <time>2016-04-21T10:04:11Z</time>
      </trkpt>
      <trkpt lat="44.44071" lon="5.68417">
        <ele>1183</ele>
        <time>2016-04-21T10:04:26Z</time>
      </trkpt>
      <trkpt lat="44.44079" lon="5.6842">
        <ele>1181</ele>
        <time>2016-04-21T10:04:35Z</time>
      </trkpt>
      <trkpt lat="44.4408" lon="5.68432">
        <ele>1178</ele>
        <time>2016-04-21T10:04:44Z</time>
      </trkpt>
      <trkpt lat="44.44081" lon="5.68444">
        <ele>1175</ele>
        <time>2016-04-21T10:04:54Z</time>
      </trkpt>
      <trkpt lat="44.44079" lon="5.68456">
        <ele>1171</ele>
        <time>2016-04-21T10:05:05Z</time>
      </trkpt>
      <trkpt lat="44.44074" lon="5.68464">
        <ele>1169</ele>
        <time>2016-04-21T10:05:11Z</time>
      </trkpt>
      <trkpt lat="44.44069" lon="5.68472">
        <ele>1167</ele>
        <time>2016-04-21T10:05:17Z</time>
      </trkpt>
      <trkpt lat="44.44064" lon="5.68477">
        <ele>1165</ele>
        <time>2016-04-21T10:05:23Z</time>
      </trkpt>
      <trkpt lat="44.44061" lon="5.68488">
        <ele>1164</ele>
        <time>2016-04-21T10:05:32Z</time>
      </trkpt>
      <trkpt lat="44.44059" lon="5.68499">
        <ele>1163</ele>
        <time>2016-04-21T10:05:39Z</time>
      </trkpt>
      <trkpt lat="44.44056" lon="5.6851">
        <ele>1162</ele>
        <time>2016-04-21T10:05:47Z</time>
      </trkpt>
      <trkpt lat="44.44052" lon="5.6852">
        <ele>1162</ele>
        <time>2016-04-21T10:05:56Z</time>
      </trkpt>
      <trkpt lat="44.44049" lon="5.68529">
        <ele>1162</ele>
        <time>2016-04-21T10:06:06Z</time>
      </trkpt>
      <trkpt lat="44.44043" lon="5.68538">
        <ele>1162</ele>
        <time>2016-04-21T10:06:14Z</time>
      </trkpt>
      <trkpt lat="44.44039" lon="5.68548">
        <ele>1161</ele>
        <time>2016-04-21T10:06:25Z</time>
      </trkpt>
      <trkpt lat="44.44034" lon="5.68557">
        <ele>1160</ele>
        <time>2016-04-21T10:06:36Z</time>
      </trkpt>
      <trkpt lat="44.4403" lon="5.68566">
        <ele>1158</ele>
        <time>2016-04-21T10:06:47Z</time>
      </trkpt>
      <trkpt lat="44.44038" lon="5.6857">
        <ele>1154</ele>
        <time>2016-04-21T10:07:12Z</time>
      </trkpt>
      <trkpt lat="44.44047" lon="5.68574">
        <ele>1151</ele>
        <time>2016-04-21T10:07:25Z</time>
      </trkpt>
      <trkpt lat="44.44055" lon="5.68577">
        <ele>1149</ele>
        <time>2016-04-21T10:07:37Z</time>
      </trkpt>
      <trkpt lat="44.44063" lon="5.68583">
        <ele>1149</ele>
        <time>2016-04-21T10:07:43Z</time>
      </trkpt>
      <trkpt lat="44.44071" lon="5.68587">
        <ele>1145</ele>
        <time>2016-04-21T10:07:55Z</time>
      </trkpt>
      <trkpt lat="44.44078" lon="5.68593">
        <ele>1142</ele>
        <time>2016-04-21T10:08:06Z</time>
      </trkpt>
      <trkpt lat="44.44084" lon="5.68602">
        <ele>1139</ele>
        <time>2016-04-21T10:08:19Z</time>
      </trkpt>
      <trkpt lat="44.4409" lon="5.6861">
        <ele>1136</ele>
        <time>2016-04-21T10:08:31Z</time>
      </trkpt>
      <trkpt lat="44.44089" lon="5.68621">
        <ele>1124</ele>
        <time>2016-04-21T10:12:56Z</time>
      </trkpt>
      <trkpt lat="44.44088" lon="5.68633">
        <ele>1123</ele>
        <time>2016-04-21T10:13:13Z</time>
      </trkpt>
      <trkpt lat="44.44082" lon="5.68642">
        <ele>1122</ele>
        <time>2016-04-21T10:13:22Z</time>
      </trkpt>
      <trkpt lat="44.44075" lon="5.68648">
        <ele>1121</ele>
        <time>2016-04-21T10:13:34Z</time>
      </trkpt>
      <trkpt lat="44.44068" lon="5.68656">
        <ele>1121</ele>
        <time>2016-04-21T10:13:42Z</time>
      </trkpt>
      <trkpt lat="44.44062" lon="5.68664">
        <ele>1121</ele>
        <time>2016-04-21T10:13:47Z</time>
      </trkpt>
      <trkpt lat="44.44057" lon="5.68674">
        <ele>1121</ele>
        <time>2016-04-21T10:13:56Z</time>
      </trkpt>
      <trkpt lat="44.44051" lon="5.68683">
        <ele>1119</ele>
        <time>2016-04-21T10:14:07Z</time>
      </trkpt>
      <trkpt lat="44.4405" lon="5.68695">
        <ele>1118</ele>
        <time>2016-04-21T10:14:14Z</time>
      </trkpt>
      <trkpt lat="44.44043" lon="5.68702">
        <ele>1116</ele>
        <time>2016-04-21T10:14:24Z</time>
      </trkpt>
      <trkpt lat="44.44037" lon="5.68711">
        <ele>1114</ele>
        <time>2016-04-21T10:14:34Z</time>
      </trkpt>
      <trkpt lat="44.44034" lon="5.68721">
        <ele>1113</ele>
        <time>2016-04-21T10:14:43Z</time>
      </trkpt>
      <trkpt lat="44.4403" lon="5.68731">
        <ele>1110</ele>
        <time>2016-04-21T10:14:59Z</time>
      </trkpt>
      <trkpt lat="44.44025" lon="5.68741">
        <ele>1107</ele>
        <time>2016-04-21T10:15:08Z</time>
      </trkpt>
      <trkpt lat="44.44017" lon="5.68747">
        <ele>1104</ele>
        <time>2016-04-21T10:15:18Z</time>
      </trkpt>
      <trkpt lat="44.44014" lon="5.68758">
        <ele>1102</ele>
        <time>2016-04-21T10:15:26Z</time>
      </trkpt>
      <trkpt lat="44.4401" lon="5.68769">
        <ele>1100</ele>
        <time>2016-04-21T10:15:34Z</time>
      </trkpt>
      <trkpt lat="44.44003" lon="5.68775">
        <ele>1098</ele>
        <time>2016-04-21T10:15:42Z</time>
      </trkpt>
      <trkpt lat="44.43998" lon="5.68784">
        <ele>1096</ele>
        <time>2016-04-21T10:15:53Z</time>
      </trkpt>
      <trkpt lat="44.43994" lon="5.68793">
        <ele>1095</ele>
        <time>2016-04-21T10:16:02Z</time>
      </trkpt>
      <trkpt lat="44.43988" lon="5.68802">
        <ele>1094</ele>
        <time>2016-04-21T10:16:12Z</time>
      </trkpt>
      <trkpt lat="44.43983" lon="5.68812">
        <ele>1093</ele>
        <time>2016-04-21T10:16:21Z</time>
      </trkpt>
      <trkpt lat="44.43979" lon="5.68823">
        <ele>1091</ele>
        <time>2016-04-21T10:16:32Z</time>
      </trkpt>
      <trkpt lat="44.43974" lon="5.68833">
        <ele>1090</ele>
        <time>2016-04-21T10:16:39Z</time>
      </trkpt>
      <trkpt lat="44.43967" lon="5.68841">
        <ele>1090</ele>
        <time>2016-04-21T10:16:49Z</time>
      </trkpt>
      <trkpt lat="44.43963" lon="5.68852">
        <ele>1087</ele>
        <time>2016-04-21T10:16:58Z</time>
      </trkpt>
      <trkpt lat="44.43959" lon="5.68863">
        <ele>1084</ele>
        <time>2016-04-21T10:17:07Z</time>
      </trkpt>
      <trkpt lat="44.43956" lon="5.68873">
        <ele>1082</ele>
        <time>2016-04-21T10:17:14Z</time>
      </trkpt>
      <trkpt lat="44.43951" lon="5.68883">
        <ele>1080</ele>
        <time>2016-04-21T10:17:24Z</time>
      </trkpt>
      <trkpt lat="44.43948" lon="5.68894">
        <ele>1078</ele>
        <time>2016-04-21T10:17:34Z</time>
      </trkpt>
      <trkpt lat="44.43943" lon="5.68904">
        <ele>1077</ele>
        <time>2016-04-21T10:17:39Z</time>
      </trkpt>
      <trkpt lat="44.4394" lon="5.68915">
        <ele>1075</ele>
        <time>2016-04-21T10:17:46Z</time>
      </trkpt>
      <trkpt lat="44.43937" lon="5.68926">
        <ele>1073</ele>
        <time>2016-04-21T10:17:53Z</time>
      </trkpt>
      <trkpt lat="44.43933" lon="5.68937">
        <ele>1072</ele>
        <time>2016-04-21T10:17:59Z</time>
      </trkpt>
      <trkpt lat="44.4393" lon="5.68948">
        <ele>1071</ele>
        <time>2016-04-21T10:18:07Z</time>
      </trkpt>
      <trkpt lat="44.4393" lon="5.6896">
        <ele>1070</ele>
        <time>2016-04-21T10:18:15Z</time>
      </trkpt>
      <trkpt lat="44.43929" lon="5.6897">
        <ele>1070</ele>
        <time>2016-04-21T10:18:22Z</time>
      </trkpt>
      <trkpt lat="44.43928" lon="5.68983">
        <ele>1070</ele>
        <time>2016-04-21T10:18:33Z</time>
      </trkpt>
      <trkpt lat="44.43929" lon="5.68994">
        <ele>1069</ele>
        <time>2016-04-21T10:18:44Z</time>
      </trkpt>
      <trkpt lat="44.43932" lon="5.69004">
        <ele>1070</ele>
        <time>2016-04-21T10:18:52Z</time>
      </trkpt>
      <trkpt lat="44.43938" lon="5.69012">
        <ele>1070</ele>
        <time>2016-04-21T10:19:00Z</time>
      </trkpt>
      <trkpt lat="44.43942" lon="5.69023">
        <ele>1069</ele>
        <time>2016-04-21T10:19:07Z</time>
      </trkpt>
      <trkpt lat="44.43943" lon="5.69036">
        <ele>1067</ele>
        <time>2016-04-21T10:19:15Z</time>
      </trkpt>
      <trkpt lat="44.43942" lon="5.69046">
        <ele>1067</ele>
        <time>2016-04-21T10:19:22Z</time>
      </trkpt>
      <trkpt lat="44.4394" lon="5.69058">
        <ele>1066</ele>
        <time>2016-04-21T10:19:29Z</time>
      </trkpt>
      <trkpt lat="44.43937" lon="5.6907">
        <ele>1066</ele>
        <time>2016-04-21T10:19:38Z</time>
      </trkpt>
      <trkpt lat="44.43931" lon="5.69077">
        <ele>1066</ele>
        <time>2016-04-21T10:19:44Z</time>
      </trkpt>
      <trkpt lat="44.43927" lon="5.69087">
        <ele>1065</ele>
        <time>2016-04-21T10:19:52Z</time>
      </trkpt>
      <trkpt lat="44.43926" lon="5.69099">
        <ele>1064</ele>
        <time>2016-04-21T10:19:57Z</time>
      </trkpt>
      <trkpt lat="44.43924" lon="5.6911">
        <ele>1062</ele>
        <time>2016-04-21T10:20:05Z</time>
      </trkpt>
      <trkpt lat="44.43919" lon="5.6912">
        <ele>1061</ele>
        <time>2016-04-21T10:20:14Z</time>
      </trkpt>
      <trkpt lat="44.43916" lon="5.69131">
        <ele>1060</ele>
        <time>2016-04-21T10:20:21Z</time>
      </trkpt>
      <trkpt lat="44.43911" lon="5.69141">
        <ele>1058</ele>
        <time>2016-04-21T10:20:29Z</time>
      </trkpt>
      <trkpt lat="44.43907" lon="5.69152">
        <ele>1057</ele>
        <time>2016-04-21T10:20:36Z</time>
      </trkpt>
      <trkpt lat="44.43905" lon="5.69163">
        <ele>1057</ele>
        <time>2016-04-21T10:20:41Z</time>
      </trkpt>
      <trkpt lat="44.439" lon="5.69174">
        <ele>1057</ele>
        <time>2016-04-21T10:20:46Z</time>
      </trkpt>
      <trkpt lat="44.43897" lon="5.69185">
        <ele>1057</ele>
        <time>2016-04-21T10:20:54Z</time>
      </trkpt>
      <trkpt lat="44.43893" lon="5.69194">
        <ele>1056</ele>
        <time>2016-04-21T10:21:36Z</time>
      </trkpt>
      <trkpt lat="44.43891" lon="5.69204">
        <ele>1056</ele>
        <time>2016-04-21T10:21:43Z</time>
      </trkpt>
      <trkpt lat="44.43886" lon="5.69213">
        <ele>1056</ele>
        <time>2016-04-21T10:21:51Z</time>
      </trkpt>
      <trkpt lat="44.43881" lon="5.69223">
        <ele>1056</ele>
        <time>2016-04-21T10:22:02Z</time>
      </trkpt>
      <trkpt lat="44.43876" lon="5.69232">
        <ele>1056</ele>
        <time>2016-04-21T10:22:11Z</time>
      </trkpt>
      <trkpt lat="44.43872" lon="5.69243">
        <ele>1055</ele>
        <time>2016-04-21T10:22:18Z</time>
      </trkpt>
      <trkpt lat="44.43869" lon="5.69253">
        <ele>1055</ele>
        <time>2016-04-21T10:22:24Z</time>
      </trkpt>
      <trkpt lat="44.43864" lon="5.69262">
        <ele>1054</ele>
        <time>2016-04-21T10:22:30Z</time>
      </trkpt>
      <trkpt lat="44.43856" lon="5.69266">
        <ele>1053</ele>
        <time>2016-04-21T10:22:37Z</time>
      </trkpt>
      <trkpt lat="44.43848" lon="5.6927">
        <ele>1051</ele>
        <time>2016-04-21T10:22:46Z</time>
      </trkpt>
      <trkpt lat="44.43843" lon="5.69281">
        <ele>1049</ele>
        <time>2016-04-21T10:22:57Z</time>
      </trkpt>
      <trkpt lat="44.43836" lon="5.69288">
        <ele>1048</ele>
        <time>2016-04-21T10:23:06Z</time>
      </trkpt>
      <trkpt lat="44.43829" lon="5.69294">
        <ele>1048</ele>
        <time>2016-04-21T10:23:13Z</time>
      </trkpt>
      <trkpt lat="44.43824" lon="5.69303">
        <ele>1048</ele>
        <time>2016-04-21T10:23:20Z</time>
      </trkpt>
      <trkpt lat="44.43818" lon="5.6931">
        <ele>1048</ele>
        <time>2016-04-21T10:23:26Z</time>
      </trkpt>
      <trkpt lat="44.43814" lon="5.6932">
        <ele>1048</ele>
        <time>2016-04-21T10:23:33Z</time>
      </trkpt>
      <trkpt lat="44.43808" lon="5.69329">
        <ele>1046</ele>
        <time>2016-04-21T10:23:40Z</time>
      </trkpt>
      <trkpt lat="44.43804" lon="5.69339">
        <ele>1045</ele>
        <time>2016-04-21T10:23:47Z</time>
      </trkpt>
      <trkpt lat="44.438" lon="5.6935">
        <ele>1045</ele>
        <time>2016-04-21T10:23:54Z</time>
      </trkpt>
      <trkpt lat="44.43796" lon="5.69361">
        <ele>1044</ele>
        <time>2016-04-21T10:24:01Z</time>
      </trkpt>
      <trkpt lat="44.43793" lon="5.69372">
        <ele>1043</ele>
        <time>2016-04-21T10:24:11Z</time>
      </trkpt>
      <trkpt lat="44.43789" lon="5.69383">
        <ele>1042</ele>
        <time>2016-04-21T10:24:17Z</time>
      </trkpt>
      <trkpt lat="44.43783" lon="5.69391">
        <ele>1041</ele>
        <time>2016-04-21T10:24:27Z</time>
      </trkpt>
      <trkpt lat="44.43774" lon="5.69396">
        <ele>1039</ele>
        <time>2016-04-21T10:24:40Z</time>
      </trkpt>
      <trkpt lat="44.43773" lon="5.69406">
        <ele>1028</ele>
        <time>2016-04-21T10:31:42Z</time>
      </trkpt>
      <trkpt lat="44.43777" lon="5.69395">
        <ele>1027</ele>
        <time>2016-04-21T11:04:07Z</time>
      </trkpt>
      <trkpt lat="44.4377" lon="5.6939">
        <ele>1027</ele>
        <time>2016-04-21T11:04:28Z</time>
      </trkpt>
      <trkpt lat="44.43763" lon="5.69397">
        <ele>1028</ele>
        <time>2016-04-21T11:04:51Z</time>
      </trkpt>
      <trkpt lat="44.43757" lon="5.69403">
        <ele>1030</ele>
        <time>2016-04-21T11:05:04Z</time>
      </trkpt>
      <trkpt lat="44.43751" lon="5.69412">
        <ele>1031</ele>
        <time>2016-04-21T11:05:15Z</time>
      </trkpt>
      <trkpt lat="44.43747" lon="5.69423">
        <ele>1032</ele>
        <time>2016-04-21T11:05:27Z</time>
      </trkpt>
      <trkpt lat="44.43744" lon="5.69432">
        <ele>1033</ele>
        <time>2016-04-21T11:05:37Z</time>
      </trkpt>
      <trkpt lat="44.43738" lon="5.69441">
        <ele>1038</ele>
        <time>2016-04-21T11:06:55Z</time>
      </trkpt>
      <trkpt lat="44.43733" lon="5.6945">
        <ele>1038</ele>
        <time>2016-04-21T11:07:04Z</time>
      </trkpt>
      <trkpt lat="44.43727" lon="5.69457">
        <ele>1038</ele>
        <time>2016-04-21T11:07:12Z</time>
      </trkpt>
      <trkpt lat="44.43721" lon="5.69465">
        <ele>1039</ele>
        <time>2016-04-21T11:07:21Z</time>
      </trkpt>
      <trkpt lat="44.4372" lon="5.69477">
        <ele>1040</ele>
        <time>2016-04-21T11:07:35Z</time>
      </trkpt>
      <trkpt lat="44.43717" lon="5.69488">
        <ele>1042</ele>
        <time>2016-04-21T11:07:45Z</time>
      </trkpt>
      <trkpt lat="44.43712" lon="5.69498">
        <ele>1043</ele>
        <time>2016-04-21T11:07:52Z</time>
      </trkpt>
      <trkpt lat="44.43706" lon="5.69505">
        <ele>1043</ele>
        <time>2016-04-21T11:08:00Z</time>
      </trkpt>
      <trkpt lat="44.43702" lon="5.69516">
        <ele>1044</ele>
        <time>2016-04-21T11:08:10Z</time>
      </trkpt>
      <trkpt lat="44.43698" lon="5.69526">
        <ele>1045</ele>
        <time>2016-04-21T11:08:20Z</time>
      </trkpt>
      <trkpt lat="44.43695" lon="5.69538">
        <ele>1046</ele>
        <time>2016-04-21T11:08:30Z</time>
      </trkpt>
      <trkpt lat="44.43689" lon="5.69546">
        <ele>1047</ele>
        <time>2016-04-21T11:08:39Z</time>
      </trkpt>
      <trkpt lat="44.43685" lon="5.69557">
        <ele>1048</ele>
        <time>2016-04-21T11:08:51Z</time>
      </trkpt>
      <trkpt lat="44.43681" lon="5.69569">
        <ele>1050</ele>
        <time>2016-04-21T11:09:06Z</time>
      </trkpt>
      <trkpt lat="44.43685" lon="5.6958">
        <ele>1051</ele>
        <time>2016-04-21T11:09:14Z</time>
      </trkpt>
      <trkpt lat="44.43686" lon="5.69592">
        <ele>1052</ele>
        <time>2016-04-21T11:09:25Z</time>
      </trkpt>
      <trkpt lat="44.43683" lon="5.69604">
        <ele>1052</ele>
        <time>2016-04-21T11:09:33Z</time>
      </trkpt>
      <trkpt lat="44.4368" lon="5.69615">
        <ele>1053</ele>
        <time>2016-04-21T11:09:42Z</time>
      </trkpt>
      <trkpt lat="44.43681" lon="5.69626">
        <ele>1053</ele>
        <time>2016-04-21T11:09:51Z</time>
      </trkpt>
      <trkpt lat="44.4368" lon="5.69638">
        <ele>1054</ele>
        <time>2016-04-21T11:09:59Z</time>
      </trkpt>
      <trkpt lat="44.43681" lon="5.69649">
        <ele>1055</ele>
        <time>2016-04-21T11:10:06Z</time>
      </trkpt>
      <trkpt lat="44.43677" lon="5.6966">
        <ele>1055</ele>
        <time>2016-04-21T11:10:17Z</time>
      </trkpt>
      <trkpt lat="44.43675" lon="5.69672">
        <ele>1056</ele>
        <time>2016-04-21T11:10:27Z</time>
      </trkpt>
      <trkpt lat="44.43673" lon="5.69683">
        <ele>1057</ele>
        <time>2016-04-21T11:10:34Z</time>
      </trkpt>
      <trkpt lat="44.43669" lon="5.69693">
        <ele>1057</ele>
        <time>2016-04-21T11:10:43Z</time>
      </trkpt>
      <trkpt lat="44.43664" lon="5.69702">
        <ele>1058</ele>
        <time>2016-04-21T11:10:51Z</time>
      </trkpt>
      <trkpt lat="44.43662" lon="5.69714">
        <ele>1058</ele>
        <time>2016-04-21T11:11:00Z</time>
      </trkpt>
      <trkpt lat="44.43661" lon="5.69726">
        <ele>1057</ele>
        <time>2016-04-21T11:11:13Z</time>
      </trkpt>
      <trkpt lat="44.43659" lon="5.69738">
        <ele>1056</ele>
        <time>2016-04-21T11:11:21Z</time>
      </trkpt>
      <trkpt lat="44.4366" lon="5.69751">
        <ele>1057</ele>
        <time>2016-04-21T11:11:31Z</time>
      </trkpt>
      <trkpt lat="44.43655" lon="5.6976">
        <ele>1055</ele>
        <time>2016-04-21T11:11:45Z</time>
      </trkpt>
      <trkpt lat="44.43651" lon="5.69771">
        <ele>1054</ele>
        <time>2016-04-21T11:12:23Z</time>
      </trkpt>
      <trkpt lat="44.43646" lon="5.69782">
        <ele>1051</ele>
        <time>2016-04-21T11:13:11Z</time>
      </trkpt>
      <trkpt lat="44.43641" lon="5.69791">
        <ele>1050</ele>
        <time>2016-04-21T11:14:17Z</time>
      </trkpt>
      <trkpt lat="44.43644" lon="5.69803">
        <ele>1051</ele>
        <time>2016-04-21T11:14:26Z</time>
      </trkpt>
      <trkpt lat="44.43642" lon="5.69814">
        <ele>1050</ele>
        <time>2016-04-21T11:14:37Z</time>
      </trkpt>
      <trkpt lat="44.43639" lon="5.69826">
        <ele>1050</ele>
        <time>2016-04-21T11:14:49Z</time>
      </trkpt>
      <trkpt lat="44.43634" lon="5.69836">
        <ele>1048</ele>
        <time>2016-04-21T11:15:03Z</time>
      </trkpt>
      <trkpt lat="44.43626" lon="5.69839">
        <ele>1047</ele>
        <time>2016-04-21T11:15:20Z</time>
      </trkpt>
      <trkpt lat="44.43618" lon="5.69844">
        <ele>1044</ele>
        <time>2016-04-21T11:15:38Z</time>
      </trkpt>
      <trkpt lat="44.43611" lon="5.69851">
        <ele>1043</ele>
        <time>2016-04-21T11:15:50Z</time>
      </trkpt>
      <trkpt lat="44.43603" lon="5.69853">
        <ele>1040</ele>
        <time>2016-04-21T11:16:09Z</time>
      </trkpt>
      <trkpt lat="44.43597" lon="5.6986">
        <ele>1038</ele>
        <time>2016-04-21T11:16:17Z</time>
      </trkpt>
      <trkpt lat="44.43591" lon="5.69869">
        <ele>1037</ele>
        <time>2016-04-21T11:16:28Z</time>
      </trkpt>
      <trkpt lat="44.43585" lon="5.69878">
        <ele>1036</ele>
        <time>2016-04-21T11:16:37Z</time>
      </trkpt>
      <trkpt lat="44.4358" lon="5.69886">
        <ele>1033</ele>
        <time>2016-04-21T11:16:47Z</time>
      </trkpt>
      <trkpt lat="44.43573" lon="5.69894">
        <ele>1031</ele>
        <time>2016-04-21T11:16:57Z</time>
      </trkpt>
      <trkpt lat="44.43565" lon="5.69893">
        <ele>1023</ele>
        <time>2016-04-21T11:17:30Z</time>
      </trkpt>
      <trkpt lat="44.43557" lon="5.69888">
        <ele>1018</ele>
        <time>2016-04-21T11:18:02Z</time>
      </trkpt>
      <trkpt lat="44.43552" lon="5.69897">
        <ele>1017</ele>
        <time>2016-04-21T11:18:15Z</time>
      </trkpt>
      <trkpt lat="44.43545" lon="5.69904">
        <ele>1015</ele>
        <time>2016-04-21T11:18:28Z</time>
      </trkpt>
      <trkpt lat="44.43538" lon="5.6991">
        <ele>1013</ele>
        <time>2016-04-21T11:18:46Z</time>
      </trkpt>
      <trkpt lat="44.4353" lon="5.69915">
        <ele>1010</ele>
        <time>2016-04-21T11:18:58Z</time>
      </trkpt>
      <trkpt lat="44.43522" lon="5.69921">
        <ele>1009</ele>
        <time>2016-04-21T11:19:06Z</time>
      </trkpt>
      <trkpt lat="44.43516" lon="5.69927">
        <ele>1007</ele>
        <time>2016-04-21T11:19:15Z</time>
      </trkpt>
      <trkpt lat="44.43508" lon="5.69932">
        <ele>1004</ele>
        <time>2016-04-21T11:19:25Z</time>
      </trkpt>
      <trkpt lat="44.43499" lon="5.69933">
        <ele>1002</ele>
        <time>2016-04-21T11:19:33Z</time>
      </trkpt>
      <trkpt lat="44.43492" lon="5.69939">
        <ele>1001</ele>
        <time>2016-04-21T11:19:41Z</time>
      </trkpt>
      <trkpt lat="44.43483" lon="5.69942">
        <ele>999</ele>
        <time>2016-04-21T11:19:51Z</time>
      </trkpt>
      <trkpt lat="44.43474" lon="5.69942">
        <ele>996</ele>
        <time>2016-04-21T11:20:02Z</time>
      </trkpt>
      <trkpt lat="44.43466" lon="5.69939">
        <ele>994</ele>
        <time>2016-04-21T11:20:11Z</time>
      </trkpt>
      <trkpt lat="44.43458" lon="5.69938">
        <ele>993</ele>
        <time>2016-04-21T11:20:16Z</time>
      </trkpt>
      <trkpt lat="44.4345" lon="5.6994">
        <ele>991</ele>
        <time>2016-04-21T11:20:22Z</time>
      </trkpt>
      <trkpt lat="44.43444" lon="5.69947">
        <ele>990</ele>
        <time>2016-04-21T11:20:31Z</time>
      </trkpt>
      <trkpt lat="44.43438" lon="5.69956">
        <ele>989</ele>
        <time>2016-04-21T11:20:41Z</time>
      </trkpt>
      <trkpt lat="44.4343" lon="5.6996">
        <ele>990</ele>
        <time>2016-04-21T11:20:54Z</time>
      </trkpt>
      <trkpt lat="44.43424" lon="5.69969">
        <ele>991</ele>
        <time>2016-04-21T11:21:08Z</time>
      </trkpt>
      <trkpt lat="44.43418" lon="5.69978">
        <ele>992</ele>
        <time>2016-04-21T11:21:19Z</time>
      </trkpt>
      <trkpt lat="44.43413" lon="5.69987">
        <ele>992</ele>
        <time>2016-04-21T11:21:32Z</time>
      </trkpt>
      <trkpt lat="44.43408" lon="5.69998">
        <ele>991</ele>
        <time>2016-04-21T11:21:41Z</time>
      </trkpt>
      <trkpt lat="44.43404" lon="5.70008">
        <ele>990</ele>
        <time>2016-04-21T11:21:51Z</time>
      </trkpt>
      <trkpt lat="44.434" lon="5.70017">
        <ele>989</ele>
        <time>2016-04-21T11:21:58Z</time>
      </trkpt>
      <trkpt lat="44.43394" lon="5.70024">
        <ele>989</ele>
        <time>2016-04-21T11:22:05Z</time>
      </trkpt>
      <trkpt lat="44.4339" lon="5.70034">
        <ele>988</ele>
        <time>2016-04-21T11:22:11Z</time>
      </trkpt>
      <trkpt lat="44.43392" lon="5.70046">
        <ele>987</ele>
        <time>2016-04-21T11:22:20Z</time>
      </trkpt>
      <trkpt lat="44.4339" lon="5.70057">
        <ele>986</ele>
        <time>2016-04-21T11:22:28Z</time>
      </trkpt>
      <trkpt lat="44.4339" lon="5.70068">
        <ele>986</ele>
        <time>2016-04-21T11:22:38Z</time>
      </trkpt>
      <trkpt lat="44.43384" lon="5.70076">
        <ele>985</ele>
        <time>2016-04-21T11:22:44Z</time>
      </trkpt>
      <trkpt lat="44.43378" lon="5.70084">
        <ele>984</ele>
        <time>2016-04-21T11:22:49Z</time>
      </trkpt>
      <trkpt lat="44.43371" lon="5.70092">
        <ele>983</ele>
        <time>2016-04-21T11:22:59Z</time>
      </trkpt>
      <trkpt lat="44.43365" lon="5.70099">
        <ele>982</ele>
        <time>2016-04-21T11:23:10Z</time>
      </trkpt>
      <trkpt lat="44.43357" lon="5.70104">
        <ele>981</ele>
        <time>2016-04-21T11:23:27Z</time>
      </trkpt>
      <trkpt lat="44.4335" lon="5.70112">
        <ele>980</ele>
        <time>2016-04-21T11:23:59Z</time>
      </trkpt>
      <trkpt lat="44.43342" lon="5.70118">
        <ele>980</ele>
        <time>2016-04-21T11:24:23Z</time>
      </trkpt>
      <trkpt lat="44.43338" lon="5.70129">
        <ele>985</ele>
        <time>2016-04-21T11:25:15Z</time>
      </trkpt>
      <trkpt lat="44.4333" lon="5.70133">
        <ele>995</ele>
        <time>2016-04-21T11:28:47Z</time>
      </trkpt>
      <trkpt lat="44.43337" lon="5.70139">
        <ele>996</ele>
        <time>2016-04-21T11:29:29Z</time>
      </trkpt>
      <trkpt lat="44.43338" lon="5.70152">
        <ele>994</ele>
        <time>2016-04-21T11:31:17Z</time>
      </trkpt>
      <trkpt lat="44.43333" lon="5.70161">
        <ele>993</ele>
        <time>2016-04-21T11:31:29Z</time>
      </trkpt>
      <trkpt lat="44.43332" lon="5.70172">
        <ele>992</ele>
        <time>2016-04-21T11:31:39Z</time>
      </trkpt>
      <trkpt lat="44.43324" lon="5.70178">
        <ele>991</ele>
        <time>2016-04-21T11:31:49Z</time>
      </trkpt>
      <trkpt lat="44.4332" lon="5.70188">
        <ele>991</ele>
        <time>2016-04-21T11:31:59Z</time>
      </trkpt>
      <trkpt lat="44.43317" lon="5.70198">
        <ele>992</ele>
        <time>2016-04-21T11:32:08Z</time>
      </trkpt>
      <trkpt lat="44.43312" lon="5.70208">
        <ele>992</ele>
        <time>2016-04-21T11:32:17Z</time>
      </trkpt>
      <trkpt lat="44.43312" lon="5.70219">
        <ele>992</ele>
        <time>2016-04-21T11:32:26Z</time>
      </trkpt>
      <trkpt lat="44.43313" lon="5.70232">
        <ele>992</ele>
        <time>2016-04-21T11:32:42Z</time>
      </trkpt>
      <trkpt lat="44.43316" lon="5.70243">
        <ele>992</ele>
        <time>2016-04-21T11:32:50Z</time>
      </trkpt>
      <trkpt lat="44.43314" lon="5.70255">
        <ele>993</ele>
        <time>2016-04-21T11:33:02Z</time>
      </trkpt>
      <trkpt lat="44.4331" lon="5.70266">
        <ele>991</ele>
        <time>2016-04-21T11:33:14Z</time>
      </trkpt>
      <trkpt lat="44.43304" lon="5.70274">
        <ele>989</ele>
        <time>2016-04-21T11:33:23Z</time>
      </trkpt>
      <trkpt lat="44.433" lon="5.70286">
        <ele>986</ele>
        <time>2016-04-21T11:33:33Z</time>
      </trkpt>
      <trkpt lat="44.43296" lon="5.70297">
        <ele>984</ele>
        <time>2016-04-21T11:33:42Z</time>
      </trkpt>
      <trkpt lat="44.43292" lon="5.70305">
        <ele>982</ele>
        <time>2016-04-21T11:33:50Z</time>
      </trkpt>
      <trkpt lat="44.43285" lon="5.70313">
        <ele>981</ele>
        <time>2016-04-21T11:34:00Z</time>
      </trkpt>
      <trkpt lat="44.43281" lon="5.70324">
        <ele>980</ele>
        <time>2016-04-21T11:34:09Z</time>
      </trkpt>
      <trkpt lat="44.43275" lon="5.70332">
        <ele>979</ele>
        <time>2016-04-21T11:34:19Z</time>
      </trkpt>
      <trkpt lat="44.4327" lon="5.70342">
        <ele>976</ele>
        <time>2016-04-21T11:34:57Z</time>
      </trkpt>
      <trkpt lat="44.43268" lon="5.70354">
        <ele>975</ele>
        <time>2016-04-21T11:35:08Z</time>
      </trkpt>
      <trkpt lat="44.43261" lon="5.70363">
        <ele>973</ele>
        <time>2016-04-21T11:35:36Z</time>
      </trkpt>
      <trkpt lat="44.43255" lon="5.70371">
        <ele>970</ele>
        <time>2016-04-21T11:36:07Z</time>
      </trkpt>
      <trkpt lat="44.43254" lon="5.70384">
        <ele>966</ele>
        <time>2016-04-21T11:37:01Z</time>
      </trkpt>
      <trkpt lat="44.43246" lon="5.70391">
        <ele>965</ele>
        <time>2016-04-21T11:37:10Z</time>
      </trkpt>
      <trkpt lat="44.4324" lon="5.70399">
        <ele>963</ele>
        <time>2016-04-21T11:37:28Z</time>
      </trkpt>
      <trkpt lat="44.43234" lon="5.70408">
        <ele>962</ele>
        <time>2016-04-21T11:37:38Z</time>
      </trkpt>
      <trkpt lat="44.43228" lon="5.70416">
        <ele>960</ele>
        <time>2016-04-21T11:37:50Z</time>
      </trkpt>
      <trkpt lat="44.43219" lon="5.7042">
        <ele>958</ele>
        <time>2016-04-21T11:38:01Z</time>
      </trkpt>
      <trkpt lat="44.43213" lon="5.70428">
        <ele>955</ele>
        <time>2016-04-21T11:38:14Z</time>
      </trkpt>
      <trkpt lat="44.43214" lon="5.7044">
        <ele>954</ele>
        <time>2016-04-21T11:38:24Z</time>
      </trkpt>
      <trkpt lat="44.43213" lon="5.70451">
        <ele>953</ele>
        <time>2016-04-21T11:38:31Z</time>
      </trkpt>
      <trkpt lat="44.43207" lon="5.7046">
        <ele>952</ele>
        <time>2016-04-21T11:38:39Z</time>
      </trkpt>
      <trkpt lat="44.43201" lon="5.70468">
        <ele>951</ele>
        <time>2016-04-21T11:38:46Z</time>
      </trkpt>
      <trkpt lat="44.43195" lon="5.70476">
        <ele>949</ele>
        <time>2016-04-21T11:38:53Z</time>
      </trkpt>
      <trkpt lat="44.4319" lon="5.70485">
        <ele>945</ele>
        <time>2016-04-21T11:39:12Z</time>
      </trkpt>
      <trkpt lat="44.43188" lon="5.70497">
        <ele>943</ele>
        <time>2016-04-21T11:39:33Z</time>
      </trkpt>
      <trkpt lat="44.43181" lon="5.70505">
        <ele>942</ele>
        <time>2016-04-21T11:39:46Z</time>
      </trkpt>
      <trkpt lat="44.43175" lon="5.70513">
        <ele>941</ele>
        <time>2016-04-21T11:40:06Z</time>
      </trkpt>
      <trkpt lat="44.4317" lon="5.70523">
        <ele>939</ele>
        <time>2016-04-21T11:40:26Z</time>
      </trkpt>
      <trkpt lat="44.43167" lon="5.70534">
        <ele>939</ele>
        <time>2016-04-21T11:40:35Z</time>
      </trkpt>
      <trkpt lat="44.43171" lon="5.70545">
        <ele>934</ele>
        <time>2016-04-21T11:41:07Z</time>
      </trkpt>
      <trkpt lat="44.43169" lon="5.70556">
        <ele>932</ele>
        <time>2016-04-21T11:41:27Z</time>
      </trkpt>
      <trkpt lat="44.43164" lon="5.70566">
        <ele>929</ele>
        <time>2016-04-21T11:41:44Z</time>
      </trkpt>
      <trkpt lat="44.43161" lon="5.70578">
        <ele>928</ele>
        <time>2016-04-21T11:41:53Z</time>
      </trkpt>
      <trkpt lat="44.43154" lon="5.70586">
        <ele>927</ele>
        <time>2016-04-21T11:42:03Z</time>
      </trkpt>
      <trkpt lat="44.43147" lon="5.70593">
        <ele>926</ele>
        <time>2016-04-21T11:42:16Z</time>
      </trkpt>
      <trkpt lat="44.43145" lon="5.70605">
        <ele>924</ele>
        <time>2016-04-21T11:42:35Z</time>
      </trkpt>
      <trkpt lat="44.43143" lon="5.70617">
        <ele>921</ele>
        <time>2016-04-21T11:43:06Z</time>
      </trkpt>
      <trkpt lat="44.43138" lon="5.70628">
        <ele>919</ele>
        <time>2016-04-21T11:43:28Z</time>
      </trkpt>
      <trkpt lat="44.43133" lon="5.70638">
        <ele>918</ele>
        <time>2016-04-21T11:43:37Z</time>
      </trkpt>
      <trkpt lat="44.43127" lon="5.70646">
        <ele>917</ele>
        <time>2016-04-21T11:43:46Z</time>
      </trkpt>
      <trkpt lat="44.43126" lon="5.70657">
        <ele>917</ele>
        <time>2016-04-21T11:43:55Z</time>
      </trkpt>
      <trkpt lat="44.43122" lon="5.70667">
        <ele>916</ele>
        <time>2016-04-21T11:44:03Z</time>
      </trkpt>
      <trkpt lat="44.43119" lon="5.70678">
        <ele>915</ele>
        <time>2016-04-21T11:44:13Z</time>
      </trkpt>
      <trkpt lat="44.43119" lon="5.7069">
        <ele>914</ele>
        <time>2016-04-21T11:44:26Z</time>
      </trkpt>
      <trkpt lat="44.43116" lon="5.70702">
        <ele>913</ele>
        <time>2016-04-21T11:44:44Z</time>
      </trkpt>
      <trkpt lat="44.43114" lon="5.70714">
        <ele>912</ele>
        <time>2016-04-21T11:44:58Z</time>
      </trkpt>
      <trkpt lat="44.43113" lon="5.70725">
        <ele>910</ele>
        <time>2016-04-21T11:45:06Z</time>
      </trkpt>
      <trkpt lat="44.4311" lon="5.70737">
        <ele>909</ele>
        <time>2016-04-21T11:45:17Z</time>
      </trkpt>
      <trkpt lat="44.43106" lon="5.70747">
        <ele>907</ele>
        <time>2016-04-21T11:45:32Z</time>
      </trkpt>
      <trkpt lat="44.43101" lon="5.70757">
        <ele>905</ele>
        <time>2016-04-21T11:45:50Z</time>
      </trkpt>
      <trkpt lat="44.43094" lon="5.70764">
        <ele>903</ele>
        <time>2016-04-21T11:46:09Z</time>
      </trkpt>
      <trkpt lat="44.43088" lon="5.70772">
        <ele>901</ele>
        <time>2016-04-21T11:46:18Z</time>
      </trkpt>
      <trkpt lat="44.43083" lon="5.70782">
        <ele>900</ele>
        <time>2016-04-21T11:46:27Z</time>
      </trkpt>
      <trkpt lat="44.4308" lon="5.70793">
        <ele>900</ele>
        <time>2016-04-21T11:46:39Z</time>
      </trkpt>
      <trkpt lat="44.43078" lon="5.70805">
        <ele>900</ele>
        <time>2016-04-21T11:46:51Z</time>
      </trkpt>
      <trkpt lat="44.43077" lon="5.70816">
        <ele>900</ele>
        <time>2016-04-21T11:47:01Z</time>
      </trkpt>
      <trkpt lat="44.43069" lon="5.7081">
        <ele>894</ele>
        <time>2016-04-21T11:47:51Z</time>
      </trkpt>
      <trkpt lat="44.43062" lon="5.70804">
        <ele>891</ele>
        <time>2016-04-21T11:48:01Z</time>
      </trkpt>
      <trkpt lat="44.43061" lon="5.70815">
        <ele>891</ele>
        <time>2016-04-21T11:48:18Z</time>
      </trkpt>
      <trkpt lat="44.43058" lon="5.70826">
        <ele>890</ele>
        <time>2016-04-21T11:48:29Z</time>
      </trkpt>
      <trkpt lat="44.43056" lon="5.70838">
        <ele>889</ele>
        <time>2016-04-21T11:48:40Z</time>
      </trkpt>
      <trkpt lat="44.43054" lon="5.70849">
        <ele>887</ele>
        <time>2016-04-21T11:48:52Z</time>
      </trkpt>
      <trkpt lat="44.43053" lon="5.70862">
        <ele>884</ele>
        <time>2016-04-21T11:49:09Z</time>
      </trkpt>
      <trkpt lat="44.4305" lon="5.70871">
        <ele>883</ele>
        <time>2016-04-21T11:49:18Z</time>
      </trkpt>
      <trkpt lat="44.43047" lon="5.70882">
        <ele>881</ele>
        <time>2016-04-21T11:49:42Z</time>
      </trkpt>
      <trkpt lat="44.43046" lon="5.70895">
        <ele>878</ele>
        <time>2016-04-21T11:49:56Z</time>
      </trkpt>
      <trkpt lat="44.43044" lon="5.70883">
        <ele>874</ele>
        <time>2016-04-21T11:50:24Z</time>
      </trkpt>
      <trkpt lat="44.43035" lon="5.70888">
        <ele>870</ele>
        <time>2016-04-21T11:50:51Z</time>
      </trkpt>
      <trkpt lat="44.43033" lon="5.70899">
        <ele>868</ele>
        <time>2016-04-21T11:51:04Z</time>
      </trkpt>
      <trkpt lat="44.43028" lon="5.7091">
        <ele>867</ele>
        <time>2016-04-21T11:51:14Z</time>
      </trkpt>
      <trkpt lat="44.43028" lon="5.70922">
        <ele>867</ele>
        <time>2016-04-21T11:51:25Z</time>
      </trkpt>
      <trkpt lat="44.43028" lon="5.70934">
        <ele>867</ele>
        <time>2016-04-21T11:51:35Z</time>
      </trkpt>
      <trkpt lat="44.43027" lon="5.70946">
        <ele>865</ele>
        <time>2016-04-21T11:51:48Z</time>
      </trkpt>
      <trkpt lat="44.43027" lon="5.70958">
        <ele>860</ele>
        <time>2016-04-21T11:52:21Z</time>
      </trkpt>
      <trkpt lat="44.43025" lon="5.7097">
        <ele>857</ele>
        <time>2016-04-21T11:52:30Z</time>
      </trkpt>
      <trkpt lat="44.43021" lon="5.70981">
        <ele>856</ele>
        <time>2016-04-21T11:52:39Z</time>
      </trkpt>
      <trkpt lat="44.43023" lon="5.70993">
        <ele>853</ele>
        <time>2016-04-21T11:52:50Z</time>
      </trkpt>
      <trkpt lat="44.43027" lon="5.71004">
        <ele>852</ele>
        <time>2016-04-21T11:53:00Z</time>
      </trkpt>
      <trkpt lat="44.43027" lon="5.71016">
        <ele>849</ele>
        <time>2016-04-21T11:53:12Z</time>
      </trkpt>
      <trkpt lat="44.43018" lon="5.71014">
        <ele>847</ele>
        <time>2016-04-21T11:53:43Z</time>
      </trkpt>
      <trkpt lat="44.43016" lon="5.71025">
        <ele>845</ele>
        <time>2016-04-21T11:54:01Z</time>
      </trkpt>
      <trkpt lat="44.43016" lon="5.71037">
        <ele>844</ele>
        <time>2016-04-21T11:54:15Z</time>
      </trkpt>
      <trkpt lat="44.43007" lon="5.7104">
        <ele>835</ele>
        <time>2016-04-21T11:55:10Z</time>
      </trkpt>
      <trkpt lat="44.43002" lon="5.71051">
        <ele>832</ele>
        <time>2016-04-21T11:55:31Z</time>
      </trkpt>
      <trkpt lat="44.43" lon="5.71062">
        <ele>831</ele>
        <time>2016-04-21T11:55:38Z</time>
      </trkpt>
      <trkpt lat="44.42999" lon="5.71074">
        <ele>829</ele>
        <time>2016-04-21T11:55:48Z</time>
      </trkpt>
      <trkpt lat="44.42999" lon="5.71086">
        <ele>828</ele>
        <time>2016-04-21T11:56:00Z</time>
      </trkpt>
      <trkpt lat="44.43" lon="5.71098">
        <ele>826</ele>
        <time>2016-04-21T11:56:15Z</time>
      </trkpt>
      <trkpt lat="44.42999" lon="5.7111">
        <ele>825</ele>
        <time>2016-04-21T11:56:31Z</time>
      </trkpt>
      <trkpt lat="44.42995" lon="5.71121">
        <ele>825</ele>
        <time>2016-04-21T11:56:40Z</time>
      </trkpt>
      <trkpt lat="44.42996" lon="5.7111">
        <ele>821</ele>
        <time>2016-04-21T11:57:11Z</time>
      </trkpt>
      <trkpt lat="44.42993" lon="5.71098">
        <ele>817</ele>
        <time>2016-04-21T11:57:30Z</time>
      </trkpt>
      <trkpt lat="44.42988" lon="5.71088">
        <ele>813</ele>
        <time>2016-04-21T11:57:45Z</time>
      </trkpt>
      <trkpt lat="44.42983" lon="5.71078">
        <ele>811</ele>
        <time>2016-04-21T11:57:56Z</time>
      </trkpt>
      <trkpt lat="44.42976" lon="5.71071">
        <ele>805</ele>
        <time>2016-04-21T11:58:18Z</time>
      </trkpt>
      <trkpt lat="44.42973" lon="5.7106">
        <ele>802</ele>
        <time>2016-04-21T11:58:30Z</time>
      </trkpt>
      <trkpt lat="44.42968" lon="5.7105">
        <ele>798</ele>
        <time>2016-04-21T11:58:50Z</time>
      </trkpt>
      <trkpt lat="44.42962" lon="5.7104">
        <ele>796</ele>
        <time>2016-04-21T11:59:02Z</time>
      </trkpt>
      <trkpt lat="44.42954" lon="5.71042">
        <ele>795</ele>
        <time>2016-04-21T11:59:14Z</time>
      </trkpt>
      <trkpt lat="44.4295" lon="5.71051">
        <ele>794</ele>
        <time>2016-04-21T11:59:23Z</time>
      </trkpt>
      <trkpt lat="44.42947" lon="5.71062">
        <ele>792</ele>
        <time>2016-04-21T11:59:30Z</time>
      </trkpt>
      <trkpt lat="44.42944" lon="5.71073">
        <ele>791</ele>
        <time>2016-04-21T11:59:41Z</time>
      </trkpt>
      <trkpt lat="44.42945" lon="5.71086">
        <ele>790</ele>
        <time>2016-04-21T11:59:51Z</time>
      </trkpt>
      <trkpt lat="44.42945" lon="5.71098">
        <ele>788</ele>
        <time>2016-04-21T12:00:06Z</time>
      </trkpt>
      <trkpt lat="44.42944" lon="5.71107">
        <ele>787</ele>
        <time>2016-04-21T12:00:14Z</time>
      </trkpt>
      <trkpt lat="44.42944" lon="5.71119">
        <ele>786</ele>
        <time>2016-04-21T12:00:21Z</time>
      </trkpt>
      <trkpt lat="44.42948" lon="5.7113">
        <ele>784</ele>
        <time>2016-04-21T12:00:29Z</time>
      </trkpt>
      <trkpt lat="44.42951" lon="5.71141">
        <ele>783</ele>
        <time>2016-04-21T12:00:37Z</time>
      </trkpt>
      <trkpt lat="44.42954" lon="5.71152">
        <ele>781</ele>
        <time>2016-04-21T12:00:46Z</time>
      </trkpt>
      <trkpt lat="44.42957" lon="5.71163">
        <ele>778</ele>
        <time>2016-04-21T12:00:56Z</time>
      </trkpt>
      <trkpt lat="44.42962" lon="5.71173">
        <ele>776</ele>
        <time>2016-04-21T12:01:02Z</time>
      </trkpt>
      <trkpt lat="44.42966" lon="5.71183">
        <ele>775</ele>
        <time>2016-04-21T12:01:07Z</time>
      </trkpt>
      <trkpt lat="44.42963" lon="5.71194">
        <ele>773</ele>
        <time>2016-04-21T12:01:18Z</time>
      </trkpt>
      <trkpt lat="44.42961" lon="5.71206">
        <ele>771</ele>
        <time>2016-04-21T12:01:29Z</time>
      </trkpt>
      <trkpt lat="44.42962" lon="5.71217">
        <ele>768</ele>
        <time>2016-04-21T12:01:41Z</time>
      </trkpt>
      <trkpt lat="44.42964" lon="5.71229">
        <ele>767</ele>
        <time>2016-04-21T12:01:50Z</time>
      </trkpt>
      <trkpt lat="44.42964" lon="5.71241">
        <ele>765</ele>
        <time>2016-04-21T12:02:01Z</time>
      </trkpt>
      <trkpt lat="44.42966" lon="5.71252">
        <ele>764</ele>
        <time>2016-04-21T12:02:09Z</time>
      </trkpt>
      <trkpt lat="44.42965" lon="5.71263">
        <ele>762</ele>
        <time>2016-04-21T12:02:20Z</time>
      </trkpt>
      <trkpt lat="44.42965" lon="5.71275">
        <ele>760</ele>
        <time>2016-04-21T12:02:36Z</time>
      </trkpt>
      <trkpt lat="44.42962" lon="5.71287">
        <ele>758</ele>
        <time>2016-04-21T12:02:45Z</time>
      </trkpt>
      <trkpt lat="44.4296" lon="5.71298">
        <ele>757</ele>
        <time>2016-04-21T12:02:55Z</time>
      </trkpt>
      <trkpt lat="44.42963" lon="5.71309">
        <ele>754</ele>
        <time>2016-04-21T12:03:18Z</time>
      </trkpt>
      <trkpt lat="44.42964" lon="5.71321">
        <ele>753</ele>
        <time>2016-04-21T12:03:30Z</time>
      </trkpt>
      <trkpt lat="44.42964" lon="5.71332">
        <ele>751</ele>
        <time>2016-04-21T12:03:38Z</time>
      </trkpt>
      <trkpt lat="44.42964" lon="5.71344">
        <ele>749</ele>
        <time>2016-04-21T12:03:55Z</time>
      </trkpt>
      <trkpt lat="44.42962" lon="5.71355">
        <ele>748</ele>
        <time>2016-04-21T12:04:01Z</time>
      </trkpt>
      <trkpt lat="44.42968" lon="5.71364">
        <ele>747</ele>
        <time>2016-04-21T12:04:07Z</time>
      </trkpt>
      <trkpt lat="44.4297" lon="5.71376">
        <ele>747</ele>
        <time>2016-04-21T12:04:17Z</time>
      </trkpt>
      <trkpt lat="44.42966" lon="5.71387">
        <ele>746</ele>
        <time>2016-04-21T12:04:25Z</time>
      </trkpt>
      <trkpt lat="44.42964" lon="5.71397">
        <ele>745</ele>
        <time>2016-04-21T12:04:32Z</time>
      </trkpt>
      <trkpt lat="44.42962" lon="5.71409">
        <ele>741</ele>
        <time>2016-04-21T12:05:36Z</time>
      </trkpt>
      <trkpt lat="44.42959" lon="5.7142">
        <ele>739</ele>
        <time>2016-04-21T12:06:03Z</time>
      </trkpt>
      <trkpt lat="44.42957" lon="5.71432">
        <ele>739</ele>
        <time>2016-04-21T12:06:17Z</time>
      </trkpt>
      <trkpt lat="44.42956" lon="5.71443">
        <ele>738</ele>
        <time>2016-04-21T12:06:32Z</time>
      </trkpt>
      <trkpt lat="44.42954" lon="5.71454">
        <ele>738</ele>
        <time>2016-04-21T12:06:41Z</time>
      </trkpt>
      <trkpt lat="44.42953" lon="5.71467">
        <ele>739</ele>
        <time>2016-04-21T12:06:55Z</time>
      </trkpt>
      <trkpt lat="44.42953" lon="5.71478">
        <ele>739</ele>
        <time>2016-04-21T12:07:03Z</time>
      </trkpt>
      <trkpt lat="44.42957" lon="5.71488">
        <ele>740</ele>
        <time>2016-04-21T12:07:11Z</time>
      </trkpt>
      <trkpt lat="44.42953" lon="5.71478">
        <ele>729</ele>
        <time>2016-04-21T12:08:34Z</time>
      </trkpt>
      <trkpt lat="44.42947" lon="5.71469">
        <ele>727</ele>
        <time>2016-04-21T12:08:48Z</time>
      </trkpt>
      <trkpt lat="44.42945" lon="5.71457">
        <ele>726</ele>
        <time>2016-04-21T12:08:59Z</time>
      </trkpt>
      <trkpt lat="44.42941" lon="5.71447">
        <ele>724</ele>
        <time>2016-04-21T12:09:11Z</time>
      </trkpt>
      <trkpt lat="44.42935" lon="5.71453">
        <ele>723</ele>
        <time>2016-04-21T12:09:20Z</time>
      </trkpt>
      <trkpt lat="44.42934" lon="5.71465">
        <ele>721</ele>
        <time>2016-04-21T12:09:34Z</time>
      </trkpt>
      <trkpt lat="44.42932" lon="5.71477">
        <ele>718</ele>
        <time>2016-04-21T12:09:49Z</time>
      </trkpt>
      <trkpt lat="44.42932" lon="5.71489">
        <ele>715</ele>
        <time>2016-04-21T12:10:06Z</time>
      </trkpt>
      <trkpt lat="44.42928" lon="5.715">
        <ele>712</ele>
        <time>2016-04-21T12:10:17Z</time>
      </trkpt>
      <trkpt lat="44.42931" lon="5.71511">
        <ele>711</ele>
        <time>2016-04-21T12:10:26Z</time>
      </trkpt>
      <trkpt lat="44.42934" lon="5.71522">
        <ele>710</ele>
        <time>2016-04-21T12:10:34Z</time>
      </trkpt>
      <trkpt lat="44.42937" lon="5.71534">
        <ele>707</ele>
        <time>2016-04-21T12:10:54Z</time>
      </trkpt>
      <trkpt lat="44.42931" lon="5.71543">
        <ele>705</ele>
        <time>2016-04-21T12:11:22Z</time>
      </trkpt>
      <trkpt lat="44.42924" lon="5.7155">
        <ele>704</ele>
        <time>2016-04-21T12:11:40Z</time>
      </trkpt>
      <trkpt lat="44.42924" lon="5.71562">
        <ele>703</ele>
        <time>2016-04-21T12:11:52Z</time>
      </trkpt>
      <trkpt lat="44.42915" lon="5.71565">
        <ele>699</ele>
        <time>2016-04-21T12:12:23Z</time>
      </trkpt>
      <trkpt lat="44.42907" lon="5.71564">
        <ele>695</ele>
        <time>2016-04-21T12:12:44Z</time>
      </trkpt>
      <trkpt lat="44.42901" lon="5.71571">
        <ele>695</ele>
        <time>2016-04-21T12:12:52Z</time>
      </trkpt>
      <trkpt lat="44.42892" lon="5.71572">
        <ele>696</ele>
        <time>2016-04-21T12:13:31Z</time>
      </trkpt>
      <trkpt lat="44.42892" lon="5.71584">
        <ele>696</ele>
        <time>2016-04-21T12:13:36Z</time>
      </trkpt>
      <trkpt lat="44.42894" lon="5.71595">
        <ele>697</ele>
        <time>2016-04-21T12:13:44Z</time>
      </trkpt>
      <trkpt lat="44.42902" lon="5.71599">
        <ele>696</ele>
        <time>2016-04-21T12:13:52Z</time>
      </trkpt>
      <trkpt lat="44.42906" lon="5.7161">
        <ele>695</ele>
        <time>2016-04-21T12:14:00Z</time>
      </trkpt>
      <trkpt lat="44.42909" lon="5.71621">
        <ele>705</ele>
        <time>2016-04-21T12:14:30Z</time>
      </trkpt>
      <trkpt lat="44.42915" lon="5.7163">
        <ele>706</ele>
        <time>2016-04-21T12:14:39Z</time>
      </trkpt>
      <trkpt lat="44.42922" lon="5.71637">
        <ele>705</ele>
        <time>2016-04-21T12:14:52Z</time>
      </trkpt>
      <trkpt lat="44.42929" lon="5.71643">
        <ele>702</ele>
        <time>2016-04-21T12:15:04Z</time>
      </trkpt>
      <trkpt lat="44.42936" lon="5.71647">
        <ele>698</ele>
        <time>2016-04-21T12:15:11Z</time>
      </trkpt>
      <trkpt lat="44.42943" lon="5.71653">
        <ele>695</ele>
        <time>2016-04-21T12:15:19Z</time>
      </trkpt>
      <trkpt lat="44.42952" lon="5.71655">
        <ele>693</ele>
        <time>2016-04-21T12:15:28Z</time>
      </trkpt>
      <trkpt lat="44.4296" lon="5.71658">
        <ele>690</ele>
        <time>2016-04-21T12:15:38Z</time>
      </trkpt>
      <trkpt lat="44.42952" lon="5.71655">
        <ele>690</ele>
        <time>2016-04-21T12:16:08Z</time>
      </trkpt>
      <trkpt lat="44.42944" lon="5.7165">
        <ele>691</ele>
        <time>2016-04-21T12:16:19Z</time>
      </trkpt>
      <trkpt lat="44.42936" lon="5.71647">
        <ele>693</ele>
        <time>2016-04-21T12:16:36Z</time>
      </trkpt>
      <trkpt lat="44.42928" lon="5.71648">
        <ele>697</ele>
        <time>2016-04-21T12:16:46Z</time>
      </trkpt>
      <trkpt lat="44.42927" lon="5.71648">
        <ele>698</ele>
        <time>2016-04-21T12:16:47Z</time>
      </trkpt>
      <trkpt lat="44.4288" lon="5.71675">
        <ele>728</ele>
        <time>2016-04-21T12:17:47Z</time>
      </trkpt>
      <trkpt lat="44.4288" lon="5.71662">
        <ele>724</ele>
        <time>2016-04-21T12:18:06Z</time>
      </trkpt>
      <trkpt lat="44.42879" lon="5.71653">
        <ele>721</ele>
        <time>2016-04-21T12:18:11Z</time>
      </trkpt>
      <trkpt lat="44.4288" lon="5.71638">
        <ele>718</ele>
        <time>2016-04-21T12:18:15Z</time>
      </trkpt>
      <trkpt lat="44.4288" lon="5.71625">
        <ele>713</ele>
        <time>2016-04-21T12:18:22Z</time>
      </trkpt>
      <trkpt lat="44.42887" lon="5.71618">
        <ele>706</ele>
        <time>2016-04-21T12:18:34Z</time>
      </trkpt>
      <trkpt lat="44.42885" lon="5.71605">
        <ele>705</ele>
        <time>2016-04-21T12:18:38Z</time>
      </trkpt>
      <trkpt lat="44.42887" lon="5.71593">
        <ele>706</ele>
        <time>2016-04-21T12:18:43Z</time>
      </trkpt>
      <trkpt lat="44.42883" lon="5.71583">
        <ele>707</ele>
        <time>2016-04-21T12:18:52Z</time>
      </trkpt>
      <trkpt lat="44.42877" lon="5.71574">
        <ele>706</ele>
        <time>2016-04-21T12:19:02Z</time>
      </trkpt>
      <trkpt lat="44.42873" lon="5.71564">
        <ele>700</ele>
        <time>2016-04-21T12:19:13Z</time>
      </trkpt>
      <trkpt lat="44.42868" lon="5.71555">
        <ele>697</ele>
        <time>2016-04-21T12:19:20Z</time>
      </trkpt>
      <trkpt lat="44.42865" lon="5.71544">
        <ele>695</ele>
        <time>2016-04-21T12:19:26Z</time>
      </trkpt>
      <trkpt lat="44.42864" lon="5.71534">
        <ele>693</ele>
        <time>2016-04-21T12:19:34Z</time>
      </trkpt>
      <trkpt lat="44.42856" lon="5.71526">
        <ele>691</ele>
        <time>2016-04-21T12:19:39Z</time>
      </trkpt>
      <trkpt lat="44.42852" lon="5.71537">
        <ele>683</ele>
        <time>2016-04-21T12:19:58Z</time>
      </trkpt>
      <trkpt lat="44.4285" lon="5.71549">
        <ele>679</ele>
        <time>2016-04-21T12:20:06Z</time>
      </trkpt>
      <trkpt lat="44.42846" lon="5.7156">
        <ele>676</ele>
        <time>2016-04-21T12:20:15Z</time>
      </trkpt>
      <trkpt lat="44.4285" lon="5.7157">
        <ele>675</ele>
        <time>2016-04-21T12:20:21Z</time>
      </trkpt>
      <trkpt lat="44.42854" lon="5.7158">
        <ele>675</ele>
        <time>2016-04-21T12:20:26Z</time>
      </trkpt>
      <trkpt lat="44.42859" lon="5.71589">
        <ele>674</ele>
        <time>2016-04-21T12:20:32Z</time>
      </trkpt>
      <trkpt lat="44.42864" lon="5.71597">
        <ele>674</ele>
        <time>2016-04-21T12:20:38Z</time>
      </trkpt>
      <trkpt lat="44.42868" lon="5.71608">
        <ele>673</ele>
        <time>2016-04-21T12:20:47Z</time>
      </trkpt>
      <trkpt lat="44.42871" lon="5.71618">
        <ele>670</ele>
        <time>2016-04-21T12:20:55Z</time>
      </trkpt>
      <trkpt lat="44.42875" lon="5.71629">
        <ele>666</ele>
        <time>2016-04-21T12:21:15Z</time>
      </trkpt>
      <trkpt lat="44.42881" lon="5.71635">
        <ele>665</ele>
        <time>2016-04-21T12:21:25Z</time>
      </trkpt>
      <trkpt lat="44.42881" lon="5.71635">
        <ele>665</ele>
        <time>2016-04-21T12:21:26Z</time>
      </trkpt>
    </trkseg>
  </trk>
</gpx>